<?xml version="1.0" encoding="UTF-8"?>
<gpx xmlns="http://www.topografix.com/GPX/1/1" xmlns:gpsies="http://www.gpsies.com/GPX/1/0" creator="GPSies http://www.gpsies.com - &amp;#1497;&amp;#1512;&amp;#1493;&amp;#1513;&amp;#1500;&amp;#1497;&amp;#1501; - &amp;#1506;&amp;#1512;&amp;#1491;" version="1.1" xmlns:xsi="http://www.w3.org/2001/XMLSchema-instance" xsi:schemaLocation="http://www.topografix.com/GPX/1/1 http://www.topografix.com/GPX/1/1/gpx.xsd http://www.gpsies.com/GPX/1/0 http://www.gpsies.com/gpsies.xsd">
  <metadata>
    <name>ירושלים - ערד</name>
    <author>
      <name>giladkohav</name>
      <link href="http://www.gpsies.com/mapUser.do?username=giladkohav">
        <text>giladkohav on GPSies.com</text>
        <type>GPSiesUserOnWeb</type>
      </link>
    </author>
    <link href="http://www.gpsies.com/map.do?fileId=gdwvtpptkbyypoll">
      <text>ירושלים - ערד on GPSies.com</text>
      <type>trackOnWeb</type>
    </link>
    <time>2016-02-07T18:46:06Z</time>
    <extensions>
      <gpsies:property>one-way trip</gpsies:property>
      <gpsies:trackLengthMeter>146567.66824624015</gpsies:trackLengthMeter>
      <gpsies:totalAscentMeter>3671.0</gpsies:totalAscentMeter>
      <gpsies:totalDescentMeter>3372.0</gpsies:totalDescentMeter>
      <gpsies:minHeightMeter>301.0</gpsies:minHeightMeter>
      <gpsies:maxHeightMeter>856.0</gpsies:maxHeightMeter>
    </extensions>
  </metadata>
  <trk>
    <name>ירושלים - ערד on GPSies.com</name>
    <link href="http://www.gpsies.com/map.do?fileId=gdwvtpptkbyypoll">
      <type>trackOnWeb</type>
    </link>
    <link href="http://www.gpsies.com/charts/gd/map/gdwvtpptkbyypoll_map.png">
      <type>elevationChartUrlMap</type>
    </link>
    <link href="http://www.gpsies.com/charts/gd/mapThumb/gdwvtpptkbyypoll_mapThumb.png">
      <type>elevationChartUrlMapThumb</type>
    </link>
    <link href="http://www.gpsies.com/charts/gd/tab/gdwvtpptkbyypoll_tab.png">
      <type>elevationChartUrlTab</type>
    </link>
    <trkseg>
      <trkpt lat="31.80271080" lon="35.01584080">
        <ele>315.00000</ele>
        <time>2010-01-01T00:00:00Z</time>
      </trkpt>
      <trkpt lat="31.80110300" lon="35.01449370">
        <ele>301.00000</ele>
        <time>2010-01-01T00:01:19Z</time>
      </trkpt>
      <trkpt lat="31.79884110" lon="35.01439240">
        <ele>306.00000</ele>
        <time>2010-01-01T00:02:49Z</time>
      </trkpt>
      <trkpt lat="31.79732630" lon="35.01479310">
        <ele>319.00000</ele>
        <time>2010-01-01T00:03:51Z</time>
      </trkpt>
      <trkpt lat="31.79583400" lon="35.01524620">
        <ele>328.00000</ele>
        <time>2010-01-01T00:04:53Z</time>
      </trkpt>
      <trkpt lat="31.79520150" lon="35.01575080">
        <ele>335.00000</ele>
        <time>2010-01-01T00:05:24Z</time>
      </trkpt>
      <trkpt lat="31.79492980" lon="35.01553940">
        <ele>333.00000</ele>
        <time>2010-01-01T00:05:37Z</time>
      </trkpt>
      <trkpt lat="31.79411490" lon="35.01509120">
        <ele>334.00000</ele>
        <time>2010-01-01T00:06:13Z</time>
      </trkpt>
      <trkpt lat="31.79332340" lon="35.01522530">
        <ele>339.00000</ele>
        <time>2010-01-01T00:06:45Z</time>
      </trkpt>
      <trkpt lat="31.79269060" lon="35.01557090">
        <ele>346.00000</ele>
        <time>2010-01-01T00:07:13Z</time>
      </trkpt>
      <trkpt lat="31.79214900" lon="35.01631360">
        <ele>358.00000</ele>
        <time>2010-01-01T00:07:46Z</time>
      </trkpt>
      <trkpt lat="31.79215010" lon="35.01694890">
        <ele>365.00000</ele>
        <time>2010-01-01T00:08:07Z</time>
      </trkpt>
      <trkpt lat="31.79230990" lon="35.01795510">
        <ele>370.00000</ele>
        <time>2010-01-01T00:08:42Z</time>
      </trkpt>
      <trkpt lat="31.79260530" lon="35.01882810">
        <ele>368.00000</ele>
        <time>2010-01-01T00:09:14Z</time>
      </trkpt>
      <trkpt lat="31.79240240" lon="35.01938470">
        <ele>371.00000</ele>
        <time>2010-01-01T00:09:35Z</time>
      </trkpt>
      <trkpt lat="31.79179190" lon="35.01949180">
        <ele>380.00000</ele>
        <time>2010-01-01T00:10:00Z</time>
      </trkpt>
      <trkpt lat="31.79045700" lon="35.01920350">
        <ele>384.00000</ele>
        <time>2010-01-01T00:10:54Z</time>
      </trkpt>
      <trkpt lat="31.78905520" lon="35.01955070">
        <ele>403.00000</ele>
        <time>2010-01-01T00:11:51Z</time>
      </trkpt>
      <trkpt lat="31.78858150" lon="35.02024000">
        <ele>418.00000</ele>
        <time>2010-01-01T00:12:21Z</time>
      </trkpt>
      <trkpt lat="31.78849180" lon="35.02092880">
        <ele>430.00000</ele>
        <time>2010-01-01T00:12:45Z</time>
      </trkpt>
      <trkpt lat="31.78801720" lon="35.02103560">
        <ele>427.00000</ele>
        <time>2010-01-01T00:13:04Z</time>
      </trkpt>
      <trkpt lat="31.78695300" lon="35.02045540">
        <ele>414.00000</ele>
        <time>2010-01-01T00:13:51Z</time>
      </trkpt>
      <trkpt lat="31.78564310" lon="35.02157000">
        <ele>436.00000</ele>
        <time>2010-01-01T00:14:56Z</time>
      </trkpt>
      <trkpt lat="31.78437710" lon="35.02218170">
        <ele>436.00000</ele>
        <time>2010-01-01T00:15:51Z</time>
      </trkpt>
      <trkpt lat="31.78421950" lon="35.02252620">
        <ele>438.00000</ele>
        <time>2010-01-01T00:16:04Z</time>
      </trkpt>
      <trkpt lat="31.78442370" lon="35.02297600">
        <ele>439.00000</ele>
        <time>2010-01-01T00:16:22Z</time>
      </trkpt>
      <trkpt lat="31.78480840" lon="35.02310780">
        <ele>446.00000</ele>
        <time>2010-01-01T00:16:38Z</time>
      </trkpt>
      <trkpt lat="31.78521610" lon="35.02360990">
        <ele>456.00000</ele>
        <time>2010-01-01T00:17:01Z</time>
      </trkpt>
      <trkpt lat="31.78598910" lon="35.02630950">
        <ele>451.00000</ele>
        <time>2010-01-01T00:18:38Z</time>
      </trkpt>
      <trkpt lat="31.78651000" lon="35.02657300">
        <ele>460.00000</ele>
        <time>2010-01-01T00:19:01Z</time>
      </trkpt>
      <trkpt lat="31.78739290" lon="35.02731300">
        <ele>470.00000</ele>
        <time>2010-01-01T00:19:44Z</time>
      </trkpt>
      <trkpt lat="31.78836670" lon="35.02818490">
        <ele>484.00000</ele>
        <time>2010-01-01T00:20:33Z</time>
      </trkpt>
      <trkpt lat="31.78891120" lon="35.02929580">
        <ele>489.00000</ele>
        <time>2010-01-01T00:21:17Z</time>
      </trkpt>
      <trkpt lat="31.78913890" lon="35.03024880">
        <ele>487.00000</ele>
        <time>2010-01-01T00:21:51Z</time>
      </trkpt>
      <trkpt lat="31.78889040" lon="35.03048770">
        <ele>479.00000</ele>
        <time>2010-01-01T00:22:03Z</time>
      </trkpt>
      <trkpt lat="31.78805240" lon="35.02972130">
        <ele>463.00000</ele>
        <time>2010-01-01T00:22:46Z</time>
      </trkpt>
      <trkpt lat="31.78707930" lon="35.02932600">
        <ele>454.00000</ele>
        <time>2010-01-01T00:23:27Z</time>
      </trkpt>
      <trkpt lat="31.78651300" lon="35.02874460">
        <ele>447.00000</ele>
        <time>2010-01-01T00:23:57Z</time>
      </trkpt>
      <trkpt lat="31.78567650" lon="35.02887870">
        <ele>467.00000</ele>
        <time>2010-01-01T00:24:31Z</time>
      </trkpt>
      <trkpt lat="31.78490780" lon="35.02919770">
        <ele>486.00000</ele>
        <time>2010-01-01T00:25:04Z</time>
      </trkpt>
      <trkpt lat="31.78427370" lon="35.02866950">
        <ele>464.00000</ele>
        <time>2010-01-01T00:25:35Z</time>
      </trkpt>
      <trkpt lat="31.78379880" lon="35.02867030">
        <ele>472.00000</ele>
        <time>2010-01-01T00:25:54Z</time>
      </trkpt>
      <trkpt lat="31.78366250" lon="35.02829990">
        <ele>463.00000</ele>
        <time>2010-01-01T00:26:07Z</time>
      </trkpt>
      <trkpt lat="31.78320980" lon="35.02816840">
        <ele>469.00000</ele>
        <time>2010-01-01T00:26:26Z</time>
      </trkpt>
      <trkpt lat="31.78275820" lon="35.02875200">
        <ele>492.00000</ele>
        <time>2010-01-01T00:26:53Z</time>
      </trkpt>
      <trkpt lat="31.78266870" lon="35.02933450">
        <ele>505.00000</ele>
        <time>2010-01-01T00:27:13Z</time>
      </trkpt>
      <trkpt lat="31.78276020" lon="35.03012880">
        <ele>518.00000</ele>
        <time>2010-01-01T00:27:40Z</time>
      </trkpt>
      <trkpt lat="31.78276120" lon="35.03084360">
        <ele>528.00000</ele>
        <time>2010-01-01T00:28:05Z</time>
      </trkpt>
      <trkpt lat="31.78196980" lon="35.03100400">
        <ele>513.00000</ele>
        <time>2010-01-01T00:28:37Z</time>
      </trkpt>
      <trkpt lat="31.78138190" lon="35.03105830">
        <ele>504.00000</ele>
        <time>2010-01-01T00:29:00Z</time>
      </trkpt>
      <trkpt lat="31.78138390" lon="35.03243530">
        <ele>524.00000</ele>
        <time>2010-01-01T00:29:47Z</time>
      </trkpt>
      <trkpt lat="31.78185920" lon="35.03267250">
        <ele>536.00000</ele>
        <time>2010-01-01T00:30:08Z</time>
      </trkpt>
      <trkpt lat="31.78238000" lon="35.03320130">
        <ele>555.00000</ele>
        <time>2010-01-01T00:30:36Z</time>
      </trkpt>
      <trkpt lat="31.78283370" lon="35.03402100">
        <ele>566.00000</ele>
        <time>2010-01-01T00:31:09Z</time>
      </trkpt>
      <trkpt lat="31.78315130" lon="35.03465600">
        <ele>580.00000</ele>
        <time>2010-01-01T00:31:34Z</time>
      </trkpt>
      <trkpt lat="31.78297160" lon="35.03558320">
        <ele>566.00000</ele>
        <time>2010-01-01T00:32:06Z</time>
      </trkpt>
      <trkpt lat="31.78279240" lon="35.03688090">
        <ele>541.00000</ele>
        <time>2010-01-01T00:32:51Z</time>
      </trkpt>
      <trkpt lat="31.78317720" lon="35.03711850">
        <ele>541.00000</ele>
        <time>2010-01-01T00:33:08Z</time>
      </trkpt>
      <trkpt lat="31.78383360" lon="35.03754090">
        <ele>527.00000</ele>
        <time>2010-01-01T00:33:38Z</time>
      </trkpt>
      <trkpt lat="31.78430870" lon="35.03743430">
        <ele>537.00000</ele>
        <time>2010-01-01T00:33:58Z</time>
      </trkpt>
      <trkpt lat="31.78532680" lon="35.03761750">
        <ele>549.00000</ele>
        <time>2010-01-01T00:34:39Z</time>
      </trkpt>
      <trkpt lat="31.78623220" lon="35.03811910">
        <ele>543.00000</ele>
        <time>2010-01-01T00:35:19Z</time>
      </trkpt>
      <trkpt lat="31.78691150" lon="35.03864730">
        <ele>541.00000</ele>
        <time>2010-01-01T00:35:52Z</time>
      </trkpt>
      <trkpt lat="31.78750070" lon="35.03952020">
        <ele>547.00000</ele>
        <time>2010-01-01T00:36:30Z</time>
      </trkpt>
      <trkpt lat="31.78768260" lon="35.04031430">
        <ele>555.00000</ele>
        <time>2010-01-01T00:36:57Z</time>
      </trkpt>
      <trkpt lat="31.78775250" lon="35.04171760">
        <ele>558.00000</ele>
        <time>2010-01-01T00:37:45Z</time>
      </trkpt>
      <trkpt lat="31.78804740" lon="35.04248490">
        <ele>556.00000</ele>
        <time>2010-01-01T00:38:14Z</time>
      </trkpt>
      <trkpt lat="31.78859090" lon="35.04296050">
        <ele>554.00000</ele>
        <time>2010-01-01T00:38:41Z</time>
      </trkpt>
      <trkpt lat="31.78911100" lon="35.04285390">
        <ele>555.00000</ele>
        <time>2010-01-01T00:39:02Z</time>
      </trkpt>
      <trkpt lat="31.78951860" lon="35.04325020">
        <ele>560.00000</ele>
        <time>2010-01-01T00:39:23Z</time>
      </trkpt>
      <trkpt lat="31.78945130" lon="35.04372690">
        <ele>560.00000</ele>
        <time>2010-01-01T00:39:40Z</time>
      </trkpt>
      <trkpt lat="31.78918190" lon="35.04518400">
        <ele>568.00000</ele>
        <time>2010-01-01T00:40:31Z</time>
      </trkpt>
      <trkpt lat="31.78839150" lon="35.04605910">
        <ele>563.00000</ele>
        <time>2010-01-01T00:41:14Z</time>
      </trkpt>
      <trkpt lat="31.78839220" lon="35.04661530">
        <ele>563.00000</ele>
        <time>2010-01-01T00:41:33Z</time>
      </trkpt>
      <trkpt lat="31.78934270" lon="35.04716970">
        <ele>575.00000</ele>
        <time>2010-01-01T00:42:15Z</time>
      </trkpt>
      <trkpt lat="31.78929950" lon="35.04873210">
        <ele>578.00000</ele>
        <time>2010-01-01T00:43:09Z</time>
      </trkpt>
      <trkpt lat="31.78875770" lon="35.04944810">
        <ele>570.00000</ele>
        <time>2010-01-01T00:43:41Z</time>
      </trkpt>
      <trkpt lat="31.78891690" lon="35.05021590">
        <ele>572.00000</ele>
        <time>2010-01-01T00:44:08Z</time>
      </trkpt>
      <trkpt lat="31.78927930" lon="35.05058580">
        <ele>572.00000</ele>
        <time>2010-01-01T00:44:27Z</time>
      </trkpt>
      <trkpt lat="31.79009410" lon="35.05090230">
        <ele>582.00000</ele>
        <time>2010-01-01T00:45:02Z</time>
      </trkpt>
      <trkpt lat="31.79029790" lon="35.05127250">
        <ele>584.00000</ele>
        <time>2010-01-01T00:45:17Z</time>
      </trkpt>
      <trkpt lat="31.79029860" lon="35.05182870">
        <ele>582.00000</ele>
        <time>2010-01-01T00:45:36Z</time>
      </trkpt>
      <trkpt lat="31.78916890" lon="35.05270440">
        <ele>567.00000</ele>
        <time>2010-01-01T00:46:30Z</time>
      </trkpt>
      <trkpt lat="31.78905660" lon="35.05323420">
        <ele>578.00000</ele>
        <time>2010-01-01T00:46:48Z</time>
      </trkpt>
      <trkpt lat="31.78955540" lon="35.05421340">
        <ele>592.00000</ele>
        <time>2010-01-01T00:47:27Z</time>
      </trkpt>
      <trkpt lat="31.79034820" lon="35.05535060">
        <ele>600.00000</ele>
        <time>2010-01-01T00:48:17Z</time>
      </trkpt>
      <trkpt lat="31.78899120" lon="35.05532630">
        <ele>576.00000</ele>
        <time>2010-01-01T00:49:12Z</time>
      </trkpt>
      <trkpt lat="31.78853920" lon="35.05561850">
        <ele>582.00000</ele>
        <time>2010-01-01T00:49:32Z</time>
      </trkpt>
      <trkpt lat="31.78835950" lon="35.05662520">
        <ele>609.00000</ele>
        <time>2010-01-01T00:50:07Z</time>
      </trkpt>
      <trkpt lat="31.78838370" lon="35.05797570">
        <ele>619.00000</ele>
        <time>2010-01-01T00:50:53Z</time>
      </trkpt>
      <trkpt lat="31.78867890" lon="35.05895470">
        <ele>618.00000</ele>
        <time>2010-01-01T00:51:28Z</time>
      </trkpt>
      <trkpt lat="31.78922250" lon="35.05953650">
        <ele>625.00000</ele>
        <time>2010-01-01T00:51:58Z</time>
      </trkpt>
      <trkpt lat="31.78969830" lon="35.06027730">
        <ele>629.00000</ele>
        <time>2010-01-01T00:52:30Z</time>
      </trkpt>
      <trkpt lat="31.79008480" lon="35.06202430">
        <ele>634.00000</ele>
        <time>2010-01-01T00:53:31Z</time>
      </trkpt>
      <trkpt lat="31.79019970" lon="35.06326880">
        <ele>628.00000</ele>
        <time>2010-01-01T00:54:14Z</time>
      </trkpt>
      <trkpt lat="31.78993010" lon="35.06512290">
        <ele>622.00000</ele>
        <time>2010-01-01T00:55:18Z</time>
      </trkpt>
      <trkpt lat="31.78981860" lon="35.06626180">
        <ele>615.00000</ele>
        <time>2010-01-01T00:55:57Z</time>
      </trkpt>
      <trkpt lat="31.78909630" lon="35.06756040">
        <ele>584.00000</ele>
        <time>2010-01-01T00:56:49Z</time>
      </trkpt>
      <trkpt lat="31.78907420" lon="35.06822240">
        <ele>578.00000</ele>
        <time>2010-01-01T00:57:12Z</time>
      </trkpt>
      <trkpt lat="31.79000300" lon="35.06938630">
        <ele>585.00000</ele>
        <time>2010-01-01T00:58:06Z</time>
      </trkpt>
      <trkpt lat="31.79043400" lon="35.07049790">
        <ele>586.00000</ele>
        <time>2010-01-01T00:58:48Z</time>
      </trkpt>
      <trkpt lat="31.79059380" lon="35.07187470">
        <ele>567.00000</ele>
        <time>2010-01-01T00:59:35Z</time>
      </trkpt>
      <trkpt lat="31.79122830" lon="35.07298580">
        <ele>561.00000</ele>
        <time>2010-01-01T01:00:21Z</time>
      </trkpt>
      <trkpt lat="31.79181670" lon="35.07340860">
        <ele>573.00000</ele>
        <time>2010-01-01T01:00:48Z</time>
      </trkpt>
      <trkpt lat="31.79272280" lon="35.07436060">
        <ele>586.00000</ele>
        <time>2010-01-01T01:01:37Z</time>
      </trkpt>
      <trkpt lat="31.79326660" lon="35.07539270">
        <ele>592.00000</ele>
        <time>2010-01-01T01:02:18Z</time>
      </trkpt>
      <trkpt lat="31.79267970" lon="35.07655870">
        <ele>575.00000</ele>
        <time>2010-01-01T01:03:04Z</time>
      </trkpt>
      <trkpt lat="31.79261230" lon="35.07708860">
        <ele>570.00000</ele>
        <time>2010-01-01T01:03:22Z</time>
      </trkpt>
      <trkpt lat="31.79308790" lon="35.07748490">
        <ele>566.00000</ele>
        <time>2010-01-01T01:03:46Z</time>
      </trkpt>
      <trkpt lat="31.79473950" lon="35.07793300">
        <ele>566.00000</ele>
        <time>2010-01-01T01:04:54Z</time>
      </trkpt>
      <trkpt lat="31.79578440" lon="35.08240690">
        <ele>547.00000</ele>
        <time>2010-01-01T01:07:32Z</time>
      </trkpt>
      <trkpt lat="31.79481560" lon="35.08606270">
        <ele>539.00000</ele>
        <time>2010-01-01T01:09:42Z</time>
      </trkpt>
      <trkpt lat="31.79434050" lon="35.08603710">
        <ele>531.00000</ele>
        <time>2010-01-01T01:10:01Z</time>
      </trkpt>
      <trkpt lat="31.79402550" lon="35.08760000">
        <ele>532.00000</ele>
        <time>2010-01-01T01:10:55Z</time>
      </trkpt>
      <trkpt lat="31.79368710" lon="35.08855380">
        <ele>530.00000</ele>
        <time>2010-01-01T01:11:31Z</time>
      </trkpt>
      <trkpt lat="31.79339280" lon="35.08810390">
        <ele>527.00000</ele>
        <time>2010-01-01T01:11:50Z</time>
      </trkpt>
      <trkpt lat="31.79336800" lon="35.08595900">
        <ele>527.00000</ele>
        <time>2010-01-01T01:13:03Z</time>
      </trkpt>
      <trkpt lat="31.79316300" lon="35.08468790">
        <ele>530.00000</ele>
        <time>2010-01-01T01:13:47Z</time>
      </trkpt>
      <trkpt lat="31.79137450" lon="35.08291630">
        <ele>549.00000</ele>
        <time>2010-01-01T01:15:21Z</time>
      </trkpt>
      <trkpt lat="31.78992580" lon="35.08170000">
        <ele>565.00000</ele>
        <time>2010-01-01T01:16:32Z</time>
      </trkpt>
      <trkpt lat="31.78865860" lon="35.08130450">
        <ele>573.00000</ele>
        <time>2010-01-01T01:17:24Z</time>
      </trkpt>
      <trkpt lat="31.78748210" lon="35.08072380">
        <ele>569.00000</ele>
        <time>2010-01-01T01:18:15Z</time>
      </trkpt>
      <trkpt lat="31.78610040" lon="35.07889860">
        <ele>561.00000</ele>
        <time>2010-01-01T01:19:39Z</time>
      </trkpt>
      <trkpt lat="31.78533050" lon="35.07813180">
        <ele>576.00000</ele>
        <time>2010-01-01T01:20:19Z</time>
      </trkpt>
      <trkpt lat="31.78399960" lon="35.08154940">
        <ele>602.00000</ele>
        <time>2010-01-01T01:22:27Z</time>
      </trkpt>
      <trkpt lat="31.78309670" lon="35.08327190">
        <ele>612.00000</ele>
        <time>2010-01-01T01:23:36Z</time>
      </trkpt>
      <trkpt lat="31.78271350" lon="35.08467590">
        <ele>614.00000</ele>
        <time>2010-01-01T01:24:26Z</time>
      </trkpt>
      <trkpt lat="31.78219380" lon="35.08502070">
        <ele>597.00000</ele>
        <time>2010-01-01T01:24:50Z</time>
      </trkpt>
      <trkpt lat="31.78213130" lon="35.08544150">
        <ele>597.00000</ele>
        <time>2010-01-01T01:25:04Z</time>
      </trkpt>
      <trkpt lat="31.78245600" lon="35.08722380">
        <ele>600.00000</ele>
        <time>2010-01-01T01:26:06Z</time>
      </trkpt>
      <trkpt lat="31.78275670" lon="35.08814210">
        <ele>609.00000</ele>
        <time>2010-01-01T01:26:40Z</time>
      </trkpt>
      <trkpt lat="31.78315120" lon="35.09016740">
        <ele>625.00000</ele>
        <time>2010-01-01T01:27:50Z</time>
      </trkpt>
      <trkpt lat="31.78310670" lon="35.09213950">
        <ele>642.00000</ele>
        <time>2010-01-01T01:28:58Z</time>
      </trkpt>
      <trkpt lat="31.78250860" lon="35.09405820">
        <ele>646.00000</ele>
        <time>2010-01-01T01:30:07Z</time>
      </trkpt>
      <trkpt lat="31.78209540" lon="35.09640920">
        <ele>648.00000</ele>
        <time>2010-01-01T01:31:29Z</time>
      </trkpt>
      <trkpt lat="31.78209660" lon="35.09757060">
        <ele>652.00000</ele>
        <time>2010-01-01T01:32:08Z</time>
      </trkpt>
      <trkpt lat="31.78239900" lon="35.10035270">
        <ele>661.00000</ele>
        <time>2010-01-01T01:33:44Z</time>
      </trkpt>
      <trkpt lat="31.78247010" lon="35.10256790">
        <ele>670.00000</ele>
        <time>2010-01-01T01:34:59Z</time>
      </trkpt>
      <trkpt lat="31.78212570" lon="35.10464810">
        <ele>677.00000</ele>
        <time>2010-01-01T01:36:11Z</time>
      </trkpt>
      <trkpt lat="31.78312020" lon="35.10742960">
        <ele>695.00000</ele>
        <time>2010-01-01T01:37:54Z</time>
      </trkpt>
      <trkpt lat="31.78263600" lon="35.10764610">
        <ele>695.00000</ele>
        <time>2010-01-01T01:38:15Z</time>
      </trkpt>
      <trkpt lat="31.78268300" lon="35.10891580">
        <ele>701.00000</ele>
        <time>2010-01-01T01:38:58Z</time>
      </trkpt>
      <trkpt lat="31.78358430" lon="35.11069780">
        <ele>712.00000</ele>
        <time>2010-01-01T01:40:09Z</time>
      </trkpt>
      <trkpt lat="31.78390890" lon="35.11253430">
        <ele>712.00000</ele>
        <time>2010-01-01T01:41:12Z</time>
      </trkpt>
      <trkpt lat="31.78435930" lon="35.11400480">
        <ele>708.00000</ele>
        <time>2010-01-01T01:42:06Z</time>
      </trkpt>
      <trkpt lat="31.78377030" lon="35.11512680">
        <ele>718.00000</ele>
        <time>2010-01-01T01:42:50Z</time>
      </trkpt>
      <trkpt lat="31.78308280" lon="35.11445710">
        <ele>714.00000</ele>
        <time>2010-01-01T01:43:26Z</time>
      </trkpt>
      <trkpt lat="31.78239610" lon="35.11508360">
        <ele>711.00000</ele>
        <time>2010-01-01T01:44:01Z</time>
      </trkpt>
      <trkpt lat="31.78090780" lon="35.11542020">
        <ele>703.00000</ele>
        <time>2010-01-01T01:45:02Z</time>
      </trkpt>
      <trkpt lat="31.78025840" lon="35.11472820">
        <ele>715.00000</ele>
        <time>2010-01-01T01:45:37Z</time>
      </trkpt>
      <trkpt lat="31.77941740" lon="35.11318780">
        <ele>714.00000</ele>
        <time>2010-01-01T01:46:39Z</time>
      </trkpt>
      <trkpt lat="31.77964520" lon="35.11133270">
        <ele>703.00000</ele>
        <time>2010-01-01T01:47:43Z</time>
      </trkpt>
      <trkpt lat="31.77964400" lon="35.11023820">
        <ele>700.00000</ele>
        <time>2010-01-01T01:48:20Z</time>
      </trkpt>
      <trkpt lat="31.77901350" lon="35.10938990">
        <ele>691.00000</ele>
        <time>2010-01-01T01:48:58Z</time>
      </trkpt>
      <trkpt lat="31.77901240" lon="35.10804930">
        <ele>688.00000</ele>
        <time>2010-01-01T01:49:44Z</time>
      </trkpt>
      <trkpt lat="31.77920230" lon="35.10675330">
        <ele>681.00000</ele>
        <time>2010-01-01T01:50:29Z</time>
      </trkpt>
      <trkpt lat="31.77903000" lon="35.10612750">
        <ele>675.00000</ele>
        <time>2010-01-01T01:50:51Z</time>
      </trkpt>
      <trkpt lat="31.77847620" lon="35.10572620">
        <ele>663.00000</ele>
        <time>2010-01-01T01:51:17Z</time>
      </trkpt>
      <trkpt lat="31.77836070" lon="35.10469860">
        <ele>658.00000</ele>
        <time>2010-01-01T01:51:52Z</time>
      </trkpt>
      <trkpt lat="31.77868450" lon="35.10391640">
        <ele>663.00000</ele>
        <time>2010-01-01T01:52:22Z</time>
      </trkpt>
      <trkpt lat="31.77824510" lon="35.10331320">
        <ele>655.00000</ele>
        <time>2010-01-01T01:52:49Z</time>
      </trkpt>
      <trkpt lat="31.77805400" lon="35.10275530">
        <ele>653.00000</ele>
        <time>2010-01-01T01:53:10Z</time>
      </trkpt>
      <trkpt lat="31.77824370" lon="35.10174950">
        <ele>663.00000</ele>
        <time>2010-01-01T01:53:45Z</time>
      </trkpt>
      <trkpt lat="31.77801420" lon="35.10107960">
        <ele>663.00000</ele>
        <time>2010-01-01T01:54:09Z</time>
      </trkpt>
      <trkpt lat="31.77757500" lon="35.10105750">
        <ele>650.00000</ele>
        <time>2010-01-01T01:54:27Z</time>
      </trkpt>
      <trkpt lat="31.77652590" lon="35.10130460">
        <ele>628.00000</ele>
        <time>2010-01-01T01:55:10Z</time>
      </trkpt>
      <trkpt lat="31.77560960" lon="35.10121660">
        <ele>628.00000</ele>
        <time>2010-01-01T01:55:46Z</time>
      </trkpt>
      <trkpt lat="31.77492180" lon="35.10061390">
        <ele>638.00000</ele>
        <time>2010-01-01T01:56:21Z</time>
      </trkpt>
      <trkpt lat="31.77429170" lon="35.10005600">
        <ele>638.00000</ele>
        <time>2010-01-01T01:56:52Z</time>
      </trkpt>
      <trkpt lat="31.77406230" lon="35.09952020">
        <ele>641.00000</ele>
        <time>2010-01-01T01:57:13Z</time>
      </trkpt>
      <trkpt lat="31.77335560" lon="35.09938700">
        <ele>623.00000</ele>
        <time>2010-01-01T01:57:41Z</time>
      </trkpt>
      <trkpt lat="31.77278280" lon="35.09907510">
        <ele>620.00000</ele>
        <time>2010-01-01T01:58:07Z</time>
      </trkpt>
      <trkpt lat="31.77251520" lon="35.09871770">
        <ele>622.00000</ele>
        <time>2010-01-01T01:58:23Z</time>
      </trkpt>
      <trkpt lat="31.77253380" lon="35.09804750">
        <ele>631.00000</ele>
        <time>2010-01-01T01:58:46Z</time>
      </trkpt>
      <trkpt lat="31.77266690" lon="35.09717600">
        <ele>639.00000</ele>
        <time>2010-01-01T01:59:16Z</time>
      </trkpt>
      <trkpt lat="31.77270410" lon="35.09657260">
        <ele>641.00000</ele>
        <time>2010-01-01T01:59:36Z</time>
      </trkpt>
      <trkpt lat="31.77228440" lon="35.09641670">
        <ele>626.00000</ele>
        <time>2010-01-01T01:59:54Z</time>
      </trkpt>
      <trkpt lat="31.77175080" lon="35.09711010">
        <ele>603.00000</ele>
        <time>2010-01-01T02:00:26Z</time>
      </trkpt>
      <trkpt lat="31.77177010" lon="35.09769110">
        <ele>599.00000</ele>
        <time>2010-01-01T02:00:46Z</time>
      </trkpt>
      <trkpt lat="31.77112200" lon="35.09869700">
        <ele>576.00000</ele>
        <time>2010-01-01T02:01:29Z</time>
      </trkpt>
      <trkpt lat="31.77022540" lon="35.09905550">
        <ele>579.00000</ele>
        <time>2010-01-01T02:02:07Z</time>
      </trkpt>
      <trkpt lat="31.76967190" lon="35.09901190">
        <ele>588.00000</ele>
        <time>2010-01-01T02:02:29Z</time>
      </trkpt>
      <trkpt lat="31.76839350" lon="35.09916950">
        <ele>582.00000</ele>
        <time>2010-01-01T02:03:20Z</time>
      </trkpt>
      <trkpt lat="31.76759230" lon="35.09990780">
        <ele>558.00000</ele>
        <time>2010-01-01T02:04:01Z</time>
      </trkpt>
      <trkpt lat="31.76627520" lon="35.09977520">
        <ele>572.00000</ele>
        <time>2010-01-01T02:04:54Z</time>
      </trkpt>
      <trkpt lat="31.76556880" lon="35.09944090">
        <ele>574.00000</ele>
        <time>2010-01-01T02:05:24Z</time>
      </trkpt>
      <trkpt lat="31.76472910" lon="35.09917390">
        <ele>567.00000</ele>
        <time>2010-01-01T02:05:59Z</time>
      </trkpt>
      <trkpt lat="31.76447930" lon="35.09781180">
        <ele>571.00000</ele>
        <time>2010-01-01T02:06:47Z</time>
      </trkpt>
      <trkpt lat="31.76466890" lon="35.09642650">
        <ele>577.00000</ele>
        <time>2010-01-01T02:07:34Z</time>
      </trkpt>
      <trkpt lat="31.76464960" lon="35.09593480">
        <ele>576.00000</ele>
        <time>2010-01-01T02:07:51Z</time>
      </trkpt>
      <trkpt lat="31.76300680" lon="35.09448520">
        <ele>562.00000</ele>
        <time>2010-01-01T02:09:13Z</time>
      </trkpt>
      <trkpt lat="31.76296770" lon="35.09356910">
        <ele>570.00000</ele>
        <time>2010-01-01T02:09:44Z</time>
      </trkpt>
      <trkpt lat="31.76273770" lon="35.09256410">
        <ele>567.00000</ele>
        <time>2010-01-01T02:10:20Z</time>
      </trkpt>
      <trkpt lat="31.76256540" lon="35.09198360">
        <ele>565.00000</ele>
        <time>2010-01-01T02:10:41Z</time>
      </trkpt>
      <trkpt lat="31.76145800" lon="35.09122530">
        <ele>551.00000</ele>
        <time>2010-01-01T02:11:32Z</time>
      </trkpt>
      <trkpt lat="31.76098020" lon="35.09080170">
        <ele>553.00000</ele>
        <time>2010-01-01T02:11:56Z</time>
      </trkpt>
      <trkpt lat="31.76075050" lon="35.09019900">
        <ele>554.00000</ele>
        <time>2010-01-01T02:12:19Z</time>
      </trkpt>
      <trkpt lat="31.76099800" lon="35.08921550">
        <ele>551.00000</ele>
        <time>2010-01-01T02:12:53Z</time>
      </trkpt>
      <trkpt lat="31.76158860" lon="35.08794150">
        <ele>520.00000</ele>
        <time>2010-01-01T02:13:43Z</time>
      </trkpt>
      <trkpt lat="31.76214140" lon="35.08776240">
        <ele>521.00000</ele>
        <time>2010-01-01T02:14:06Z</time>
      </trkpt>
      <trkpt lat="31.76319120" lon="35.08762700">
        <ele>541.00000</ele>
        <time>2010-01-01T02:14:48Z</time>
      </trkpt>
      <trkpt lat="31.76317140" lon="35.08706840">
        <ele>551.00000</ele>
        <time>2010-01-01T02:15:07Z</time>
      </trkpt>
      <trkpt lat="31.76252200" lon="35.08644380">
        <ele>542.00000</ele>
        <time>2010-01-01T02:15:41Z</time>
      </trkpt>
      <trkpt lat="31.76229260" lon="35.08581850">
        <ele>545.00000</ele>
        <time>2010-01-01T02:16:04Z</time>
      </trkpt>
      <trkpt lat="31.76223450" lon="35.08523800">
        <ele>543.00000</ele>
        <time>2010-01-01T02:16:24Z</time>
      </trkpt>
      <trkpt lat="31.76194760" lon="35.08476890">
        <ele>534.00000</ele>
        <time>2010-01-01T02:16:43Z</time>
      </trkpt>
      <trkpt lat="31.76166100" lon="35.08401000">
        <ele>522.00000</ele>
        <time>2010-01-01T02:17:12Z</time>
      </trkpt>
      <trkpt lat="31.76135440" lon="35.08313910">
        <ele>507.00000</ele>
        <time>2010-01-01T02:17:44Z</time>
      </trkpt>
      <trkpt lat="31.76154510" lon="35.08278160">
        <ele>510.00000</ele>
        <time>2010-01-01T02:17:58Z</time>
      </trkpt>
      <trkpt lat="31.76129620" lon="35.08222320">
        <ele>508.00000</ele>
        <time>2010-01-01T02:18:20Z</time>
      </trkpt>
      <trkpt lat="31.76104780" lon="35.08200020">
        <ele>504.00000</ele>
        <time>2010-01-01T02:18:32Z</time>
      </trkpt>
      <trkpt lat="31.76072270" lon="35.08110720">
        <ele>504.00000</ele>
        <time>2010-01-01T02:19:05Z</time>
      </trkpt>
      <trkpt lat="31.75974760" lon="35.07970120">
        <ele>500.00000</ele>
        <time>2010-01-01T02:20:07Z</time>
      </trkpt>
      <trkpt lat="31.75946210" lon="35.08021570">
        <ele>481.00000</ele>
        <time>2010-01-01T02:20:28Z</time>
      </trkpt>
      <trkpt lat="31.75892830" lon="35.08072980">
        <ele>463.00000</ele>
        <time>2010-01-01T02:20:55Z</time>
      </trkpt>
      <trkpt lat="31.75848980" lon="35.08113270">
        <ele>454.00000</ele>
        <time>2010-01-01T02:21:18Z</time>
      </trkpt>
      <trkpt lat="31.75814630" lon="35.08140110">
        <ele>451.00000</ele>
        <time>2010-01-01T02:21:34Z</time>
      </trkpt>
      <trkpt lat="31.75738320" lon="35.08171490">
        <ele>443.00000</ele>
        <time>2010-01-01T02:22:07Z</time>
      </trkpt>
      <trkpt lat="31.75686870" lon="35.08245280">
        <ele>443.00000</ele>
        <time>2010-01-01T02:22:39Z</time>
      </trkpt>
      <trkpt lat="31.75625850" lon="35.08323570">
        <ele>436.00000</ele>
        <time>2010-01-01T02:23:15Z</time>
      </trkpt>
      <trkpt lat="31.75646990" lon="35.08462040">
        <ele>439.00000</ele>
        <time>2010-01-01T02:24:03Z</time>
      </trkpt>
      <trkpt lat="31.75710070" lon="35.08553540">
        <ele>441.00000</ele>
        <time>2010-01-01T02:24:43Z</time>
      </trkpt>
      <trkpt lat="31.75857270" lon="35.08790090">
        <ele>423.00000</ele>
        <time>2010-01-01T02:26:23Z</time>
      </trkpt>
      <trkpt lat="31.75865020" lon="35.08901750">
        <ele>433.00000</ele>
        <time>2010-01-01T02:27:01Z</time>
      </trkpt>
      <trkpt lat="31.75836420" lon="35.08946510">
        <ele>431.00000</ele>
        <time>2010-01-01T02:27:20Z</time>
      </trkpt>
      <trkpt lat="31.75801990" lon="35.08857160">
        <ele>420.00000</ele>
        <time>2010-01-01T02:27:54Z</time>
      </trkpt>
      <trkpt lat="31.75736990" lon="35.08759010">
        <ele>420.00000</ele>
        <time>2010-01-01T02:28:36Z</time>
      </trkpt>
      <trkpt lat="31.75691260" lon="35.08805930">
        <ele>424.00000</ele>
        <time>2010-01-01T02:29:00Z</time>
      </trkpt>
      <trkpt lat="31.75614920" lon="35.08848510">
        <ele>436.00000</ele>
        <time>2010-01-01T02:29:34Z</time>
      </trkpt>
      <trkpt lat="31.75550030" lon="35.08826230">
        <ele>448.00000</ele>
        <time>2010-01-01T02:30:01Z</time>
      </trkpt>
      <trkpt lat="31.75487000" lon="35.08774970">
        <ele>463.00000</ele>
        <time>2010-01-01T02:30:32Z</time>
      </trkpt>
      <trkpt lat="31.75464010" lon="35.08707980">
        <ele>473.00000</ele>
        <time>2010-01-01T02:30:56Z</time>
      </trkpt>
      <trkpt lat="31.75437170" lon="35.08596330">
        <ele>480.00000</ele>
        <time>2010-01-01T02:31:36Z</time>
      </trkpt>
      <trkpt lat="31.75397010" lon="35.08480210">
        <ele>477.00000</ele>
        <time>2010-01-01T02:32:19Z</time>
      </trkpt>
      <trkpt lat="31.75339680" lon="35.08433390">
        <ele>488.00000</ele>
        <time>2010-01-01T02:32:46Z</time>
      </trkpt>
      <trkpt lat="31.75238520" lon="35.08429060">
        <ele>495.00000</ele>
        <time>2010-01-01T02:33:27Z</time>
      </trkpt>
      <trkpt lat="31.74977060" lon="35.08440610">
        <ele>469.00000</ele>
        <time>2010-01-01T02:35:12Z</time>
      </trkpt>
      <trkpt lat="31.74891190" lon="35.08460830">
        <ele>476.00000</ele>
        <time>2010-01-01T02:35:47Z</time>
      </trkpt>
      <trkpt lat="31.74841640" lon="35.08532380">
        <ele>458.00000</ele>
        <time>2010-01-01T02:36:18Z</time>
      </trkpt>
      <trkpt lat="31.74830290" lon="35.08641830">
        <ele>444.00000</ele>
        <time>2010-01-01T02:36:56Z</time>
      </trkpt>
      <trkpt lat="31.74864840" lon="35.08818200">
        <ele>451.00000</ele>
        <time>2010-01-01T02:37:57Z</time>
      </trkpt>
      <trkpt lat="31.74941420" lon="35.09037020">
        <ele>456.00000</ele>
        <time>2010-01-01T02:39:18Z</time>
      </trkpt>
      <trkpt lat="31.74954850" lon="35.09159870">
        <ele>461.00000</ele>
        <time>2010-01-01T02:40:00Z</time>
      </trkpt>
      <trkpt lat="31.74907290" lon="35.09296140">
        <ele>463.00000</ele>
        <time>2010-01-01T02:40:50Z</time>
      </trkpt>
      <trkpt lat="31.74838570" lon="35.09314090">
        <ele>469.00000</ele>
        <time>2010-01-01T02:41:18Z</time>
      </trkpt>
      <trkpt lat="31.74748870" lon="35.09296360">
        <ele>477.00000</ele>
        <time>2010-01-01T02:41:55Z</time>
      </trkpt>
      <trkpt lat="31.74567450" lon="35.09182660">
        <ele>486.00000</ele>
        <time>2010-01-01T02:43:17Z</time>
      </trkpt>
      <trkpt lat="31.74519760" lon="35.09189420">
        <ele>480.00000</ele>
        <time>2010-01-01T02:43:36Z</time>
      </trkpt>
      <trkpt lat="31.74506430" lon="35.09258670">
        <ele>470.00000</ele>
        <time>2010-01-01T02:44:00Z</time>
      </trkpt>
      <trkpt lat="31.74483560" lon="35.09305640">
        <ele>472.00000</ele>
        <time>2010-01-01T02:44:19Z</time>
      </trkpt>
      <trkpt lat="31.74426350" lon="35.09336960">
        <ele>480.00000</ele>
        <time>2010-01-01T02:44:44Z</time>
      </trkpt>
      <trkpt lat="31.74342400" lon="35.09359390">
        <ele>485.00000</ele>
        <time>2010-01-01T02:45:19Z</time>
      </trkpt>
      <trkpt lat="31.74193550" lon="35.09359590">
        <ele>493.00000</ele>
        <time>2010-01-01T02:46:18Z</time>
      </trkpt>
      <trkpt lat="31.74107670" lon="35.09368630">
        <ele>493.00000</ele>
        <time>2010-01-01T02:46:53Z</time>
      </trkpt>
      <trkpt lat="31.74012230" lon="35.09402250">
        <ele>491.00000</ele>
        <time>2010-01-01T02:47:33Z</time>
      </trkpt>
      <trkpt lat="31.73957000" lon="35.09480470">
        <ele>484.00000</ele>
        <time>2010-01-01T02:48:07Z</time>
      </trkpt>
      <trkpt lat="31.73899820" lon="35.09603390">
        <ele>483.00000</ele>
        <time>2010-01-01T02:48:55Z</time>
      </trkpt>
      <trkpt lat="31.73898020" lon="35.09690490">
        <ele>487.00000</ele>
        <time>2010-01-01T02:49:25Z</time>
      </trkpt>
      <trkpt lat="31.73957280" lon="35.09795380">
        <ele>487.00000</ele>
        <time>2010-01-01T02:50:07Z</time>
      </trkpt>
      <trkpt lat="31.74182700" lon="35.10045280">
        <ele>490.00000</ele>
        <time>2010-01-01T02:52:11Z</time>
      </trkpt>
      <trkpt lat="31.74199940" lon="35.10141250">
        <ele>492.00000</ele>
        <time>2010-01-01T02:52:45Z</time>
      </trkpt>
      <trkpt lat="31.74172650" lon="35.10336570">
        <ele>488.00000</ele>
        <time>2010-01-01T02:53:52Z</time>
      </trkpt>
      <trkpt lat="31.74103230" lon="35.10532600">
        <ele>497.00000</ele>
        <time>2010-01-01T02:55:05Z</time>
      </trkpt>
      <trkpt lat="31.74020730" lon="35.10629330">
        <ele>501.00000</ele>
        <time>2010-01-01T02:55:51Z</time>
      </trkpt>
      <trkpt lat="31.73973680" lon="35.10715210">
        <ele>501.00000</ele>
        <time>2010-01-01T02:56:26Z</time>
      </trkpt>
      <trkpt lat="31.73984820" lon="35.10850560">
        <ele>498.00000</ele>
        <time>2010-01-01T02:57:12Z</time>
      </trkpt>
      <trkpt lat="31.74005040" lon="35.10893510">
        <ele>496.00000</ele>
        <time>2010-01-01T02:57:29Z</time>
      </trkpt>
      <trkpt lat="31.73977530" lon="35.10925800">
        <ele>503.00000</ele>
        <time>2010-01-01T02:57:44Z</time>
      </trkpt>
      <trkpt lat="31.73944440" lon="35.10863500">
        <ele>510.00000</ele>
        <time>2010-01-01T02:58:09Z</time>
      </trkpt>
      <trkpt lat="31.73915050" lon="35.10850630">
        <ele>519.00000</ele>
        <time>2010-01-01T02:58:22Z</time>
      </trkpt>
      <trkpt lat="31.73900370" lon="35.10885060">
        <ele>524.00000</ele>
        <time>2010-01-01T02:58:35Z</time>
      </trkpt>
      <trkpt lat="31.73905970" lon="35.10951650">
        <ele>521.00000</ele>
        <time>2010-01-01T02:58:58Z</time>
      </trkpt>
      <trkpt lat="31.73882060" lon="35.10964560">
        <ele>526.00000</ele>
        <time>2010-01-01T02:59:08Z</time>
      </trkpt>
      <trkpt lat="31.73771890" lon="35.10930340">
        <ele>549.00000</ele>
        <time>2010-01-01T02:59:54Z</time>
      </trkpt>
      <trkpt lat="31.73639620" lon="35.10917570">
        <ele>568.00000</ele>
        <time>2010-01-01T03:00:47Z</time>
      </trkpt>
      <trkpt lat="31.73560680" lon="35.10917650">
        <ele>576.00000</ele>
        <time>2010-01-01T03:01:19Z</time>
      </trkpt>
      <trkpt lat="31.73509300" lon="35.11001520">
        <ele>563.00000</ele>
        <time>2010-01-01T03:01:54Z</time>
      </trkpt>
      <trkpt lat="31.73540580" lon="35.11027290">
        <ele>567.00000</ele>
        <time>2010-01-01T03:02:09Z</time>
      </trkpt>
      <trkpt lat="31.73680130" lon="35.11046450">
        <ele>543.00000</ele>
        <time>2010-01-01T03:03:06Z</time>
      </trkpt>
      <trkpt lat="31.73720580" lon="35.11108710">
        <ele>529.00000</ele>
        <time>2010-01-01T03:03:32Z</time>
      </trkpt>
      <trkpt lat="31.73694960" lon="35.11205440">
        <ele>531.00000</ele>
        <time>2010-01-01T03:04:07Z</time>
      </trkpt>
      <trkpt lat="31.73584940" lon="35.11418290">
        <ele>538.00000</ele>
        <time>2010-01-01T03:05:31Z</time>
      </trkpt>
      <trkpt lat="31.73553790" lon="35.11499980">
        <ele>537.00000</ele>
        <time>2010-01-01T03:06:02Z</time>
      </trkpt>
      <trkpt lat="31.73535970" lon="35.11605320">
        <ele>535.00000</ele>
        <time>2010-01-01T03:06:39Z</time>
      </trkpt>
      <trkpt lat="31.73472300" lon="35.11710800">
        <ele>546.00000</ele>
        <time>2010-01-01T03:07:23Z</time>
      </trkpt>
      <trkpt lat="31.73383610" lon="35.11772520">
        <ele>571.00000</ele>
        <time>2010-01-01T03:08:04Z</time>
      </trkpt>
      <trkpt lat="31.73206160" lon="35.11745130">
        <ele>613.00000</ele>
        <time>2010-01-01T03:09:15Z</time>
      </trkpt>
      <trkpt lat="31.73043970" lon="35.11724210">
        <ele>629.00000</ele>
        <time>2010-01-01T03:10:21Z</time>
      </trkpt>
      <trkpt lat="31.72999630" lon="35.11746970">
        <ele>620.00000</ele>
        <time>2010-01-01T03:10:40Z</time>
      </trkpt>
      <trkpt lat="31.73066220" lon="35.11819880">
        <ele>599.00000</ele>
        <time>2010-01-01T03:11:17Z</time>
      </trkpt>
      <trkpt lat="31.73297220" lon="35.11980060">
        <ele>591.00000</ele>
        <time>2010-01-01T03:13:04Z</time>
      </trkpt>
      <trkpt lat="31.73434330" lon="35.12087870">
        <ele>600.00000</ele>
        <time>2010-01-01T03:14:10Z</time>
      </trkpt>
      <trkpt lat="31.73400070" lon="35.12100220">
        <ele>609.00000</ele>
        <time>2010-01-01T03:14:24Z</time>
      </trkpt>
      <trkpt lat="31.72999260" lon="35.11835420">
        <ele>615.00000</ele>
        <time>2010-01-01T03:17:28Z</time>
      </trkpt>
      <trkpt lat="31.72822610" lon="35.11752370">
        <ele>655.00000</ele>
        <time>2010-01-01T03:18:45Z</time>
      </trkpt>
      <trkpt lat="31.72535380" lon="35.11798870">
        <ele>697.00000</ele>
        <time>2010-01-01T03:20:41Z</time>
      </trkpt>
      <trkpt lat="31.72316620" lon="35.11836120">
        <ele>717.00000</ele>
        <time>2010-01-01T03:22:09Z</time>
      </trkpt>
      <trkpt lat="31.72263890" lon="35.11774520">
        <ele>708.00000</ele>
        <time>2010-01-01T03:22:39Z</time>
      </trkpt>
      <trkpt lat="31.72179450" lon="35.11678980">
        <ele>714.00000</ele>
        <time>2010-01-01T03:23:26Z</time>
      </trkpt>
      <trkpt lat="31.72068720" lon="35.11623630">
        <ele>727.00000</ele>
        <time>2010-01-01T03:24:14Z</time>
      </trkpt>
      <trkpt lat="31.71955360" lon="35.11614460">
        <ele>738.00000</ele>
        <time>2010-01-01T03:24:59Z</time>
      </trkpt>
      <trkpt lat="31.71928960" lon="35.11525100">
        <ele>732.00000</ele>
        <time>2010-01-01T03:25:32Z</time>
      </trkpt>
      <trkpt lat="31.71942020" lon="35.11346250">
        <ele>738.00000</ele>
        <time>2010-01-01T03:26:33Z</time>
      </trkpt>
      <trkpt lat="31.71976170" lon="35.11232120">
        <ele>741.00000</ele>
        <time>2010-01-01T03:27:14Z</time>
      </trkpt>
      <trkpt lat="31.71989230" lon="35.11084070">
        <ele>756.00000</ele>
        <time>2010-01-01T03:28:05Z</time>
      </trkpt>
      <trkpt lat="31.71917960" lon="35.10948510">
        <ele>764.00000</ele>
        <time>2010-01-01T03:28:59Z</time>
      </trkpt>
      <trkpt lat="31.71862460" lon="35.10760440">
        <ele>765.00000</ele>
        <time>2010-01-01T03:30:07Z</time>
      </trkpt>
      <trkpt lat="31.71828060" lon="35.10618690">
        <ele>761.00000</ele>
        <time>2010-01-01T03:30:57Z</time>
      </trkpt>
      <trkpt lat="31.71922790" lon="35.10393480">
        <ele>757.00000</ele>
        <time>2010-01-01T03:32:22Z</time>
      </trkpt>
      <trkpt lat="31.71967370" lon="35.10156000">
        <ele>741.00000</ele>
        <time>2010-01-01T03:33:45Z</time>
      </trkpt>
      <trkpt lat="31.72001430" lon="35.09940100">
        <ele>733.00000</ele>
        <time>2010-01-01T03:35:00Z</time>
      </trkpt>
      <trkpt lat="31.72164590" lon="35.09640800">
        <ele>730.00000</ele>
        <time>2010-01-01T03:37:01Z</time>
      </trkpt>
      <trkpt lat="31.72288260" lon="35.09430990">
        <ele>721.00000</ele>
        <time>2010-01-01T03:38:28Z</time>
      </trkpt>
      <trkpt lat="31.72237920" lon="35.09131920">
        <ele>739.00000</ele>
        <time>2010-01-01T03:40:12Z</time>
      </trkpt>
      <trkpt lat="31.72082200" lon="35.08897780">
        <ele>744.00000</ele>
        <time>2010-01-01T03:41:53Z</time>
      </trkpt>
      <trkpt lat="31.72139900" lon="35.08620190">
        <ele>735.00000</ele>
        <time>2010-01-01T03:43:30Z</time>
      </trkpt>
      <trkpt lat="31.71986750" lon="35.08342880">
        <ele>711.00000</ele>
        <time>2010-01-01T03:45:23Z</time>
      </trkpt>
      <trkpt lat="31.71910020" lon="35.08059340">
        <ele>694.00000</ele>
        <time>2010-01-01T03:47:04Z</time>
      </trkpt>
      <trkpt lat="31.71799230" lon="35.07936140">
        <ele>684.00000</ele>
        <time>2010-01-01T03:48:05Z</time>
      </trkpt>
      <trkpt lat="31.71733160" lon="35.07800560">
        <ele>681.00000</ele>
        <time>2010-01-01T03:48:58Z</time>
      </trkpt>
      <trkpt lat="31.71675010" lon="35.07600260">
        <ele>672.00000</ele>
        <time>2010-01-01T03:50:10Z</time>
      </trkpt>
      <trkpt lat="31.71661680" lon="35.07492320">
        <ele>664.00000</ele>
        <time>2010-01-01T03:50:48Z</time>
      </trkpt>
      <trkpt lat="31.71685300" lon="35.07378210">
        <ele>668.00000</ele>
        <time>2010-01-01T03:51:28Z</time>
      </trkpt>
      <trkpt lat="31.71619230" lon="35.07242640">
        <ele>655.00000</ele>
        <time>2010-01-01T03:52:21Z</time>
      </trkpt>
      <trkpt lat="31.71619030" lon="35.07057670">
        <ele>665.00000</ele>
        <time>2010-01-01T03:53:24Z</time>
      </trkpt>
      <trkpt lat="31.71555650" lon="35.06949860">
        <ele>658.00000</ele>
        <time>2010-01-01T03:54:08Z</time>
      </trkpt>
      <trkpt lat="31.71555510" lon="35.06826490">
        <ele>662.00000</ele>
        <time>2010-01-01T03:54:50Z</time>
      </trkpt>
      <trkpt lat="31.71502690" lon="35.06727920">
        <ele>660.00000</ele>
        <time>2010-01-01T03:55:30Z</time>
      </trkpt>
      <trkpt lat="31.71407720" lon="35.06638640">
        <ele>652.00000</ele>
        <time>2010-01-01T03:56:19Z</time>
      </trkpt>
      <trkpt lat="31.71341570" lon="35.06416770">
        <ele>641.00000</ele>
        <time>2010-01-01T03:57:39Z</time>
      </trkpt>
      <trkpt lat="31.71278060" lon="35.06210290">
        <ele>632.00000</ele>
        <time>2010-01-01T03:58:54Z</time>
      </trkpt>
      <trkpt lat="31.71235610" lon="35.05948270">
        <ele>636.00000</ele>
        <time>2010-01-01T04:00:24Z</time>
      </trkpt>
      <trkpt lat="31.71200980" lon="35.05673930">
        <ele>639.00000</ele>
        <time>2010-01-01T04:01:59Z</time>
      </trkpt>
      <trkpt lat="31.71142770" lon="35.05489040">
        <ele>623.00000</ele>
        <time>2010-01-01T04:03:06Z</time>
      </trkpt>
      <trkpt lat="31.71039740" lon="35.05301170">
        <ele>616.00000</ele>
        <time>2010-01-01T04:04:22Z</time>
      </trkpt>
      <trkpt lat="31.71050150" lon="35.05196280">
        <ele>606.00000</ele>
        <time>2010-01-01T04:04:58Z</time>
      </trkpt>
      <trkpt lat="31.71050040" lon="35.05097630">
        <ele>594.00000</ele>
        <time>2010-01-01T04:05:32Z</time>
      </trkpt>
      <trkpt lat="31.71068390" lon="35.05017430">
        <ele>587.00000</ele>
        <time>2010-01-01T04:06:00Z</time>
      </trkpt>
      <trkpt lat="31.71131440" lon="35.04857020">
        <ele>585.00000</ele>
        <time>2010-01-01T04:07:00Z</time>
      </trkpt>
      <trkpt lat="31.71154980" lon="35.04718210">
        <ele>594.00000</ele>
        <time>2010-01-01T04:07:48Z</time>
      </trkpt>
      <trkpt lat="31.71125820" lon="35.04591860">
        <ele>603.00000</ele>
        <time>2010-01-01T04:08:33Z</time>
      </trkpt>
      <trkpt lat="31.71051780" lon="35.04400870">
        <ele>608.00000</ele>
        <time>2010-01-01T04:09:44Z</time>
      </trkpt>
      <trkpt lat="31.70972590" lon="35.04293060">
        <ele>595.00000</ele>
        <time>2010-01-01T04:10:33Z</time>
      </trkpt>
      <trkpt lat="31.70914380" lon="35.04139040">
        <ele>574.00000</ele>
        <time>2010-01-01T04:11:30Z</time>
      </trkpt>
      <trkpt lat="31.70948300" lon="35.03864580">
        <ele>550.00000</ele>
        <time>2010-01-01T04:13:05Z</time>
      </trkpt>
      <trkpt lat="31.70945350" lon="35.03661100">
        <ele>541.00000</ele>
        <time>2010-01-01T04:14:14Z</time>
      </trkpt>
      <trkpt lat="31.70924120" lon="35.03562460">
        <ele>537.00000</ele>
        <time>2010-01-01T04:14:49Z</time>
      </trkpt>
      <trkpt lat="31.70907930" lon="35.03272720">
        <ele>513.00000</ele>
        <time>2010-01-01T04:16:28Z</time>
      </trkpt>
      <trkpt lat="31.70894600" lon="35.03186420">
        <ele>510.00000</ele>
        <time>2010-01-01T04:16:57Z</time>
      </trkpt>
      <trkpt lat="31.70918140" lon="35.03032190">
        <ele>504.00000</ele>
        <time>2010-01-01T04:17:51Z</time>
      </trkpt>
      <trkpt lat="31.70952130" lon="35.02862560">
        <ele>500.00000</ele>
        <time>2010-01-01T04:18:50Z</time>
      </trkpt>
      <trkpt lat="31.70946670" lon="35.02705350">
        <ele>487.00000</ele>
        <time>2010-01-01T04:19:44Z</time>
      </trkpt>
      <trkpt lat="31.70920130" lon="35.02585130">
        <ele>479.00000</ele>
        <time>2010-01-01T04:20:26Z</time>
      </trkpt>
      <trkpt lat="31.70798410" lon="35.02283270">
        <ele>454.00000</ele>
        <time>2010-01-01T04:22:20Z</time>
      </trkpt>
      <trkpt lat="31.70745390" lon="35.02064450">
        <ele>441.00000</ele>
        <time>2010-01-01T04:23:37Z</time>
      </trkpt>
      <trkpt lat="31.70655420" lon="35.01836500">
        <ele>417.00000</ele>
        <time>2010-01-01T04:25:03Z</time>
      </trkpt>
      <trkpt lat="31.70478740" lon="35.01765990">
        <ele>399.00000</ele>
        <time>2010-01-01T04:26:18Z</time>
      </trkpt>
      <trkpt lat="31.70417910" lon="35.01639670">
        <ele>400.00000</ele>
        <time>2010-01-01T04:27:07Z</time>
      </trkpt>
      <trkpt lat="31.70346590" lon="35.01535000">
        <ele>395.00000</ele>
        <time>2010-01-01T04:27:53Z</time>
      </trkpt>
      <trkpt lat="31.70196270" lon="35.01479830">
        <ele>379.00000</ele>
        <time>2010-01-01T04:28:56Z</time>
      </trkpt>
      <trkpt lat="31.70090790" lon="35.01440020">
        <ele>372.00000</ele>
        <time>2010-01-01T04:29:40Z</time>
      </trkpt>
      <trkpt lat="31.69974670" lon="35.01332340">
        <ele>366.00000</ele>
        <time>2010-01-01T04:30:39Z</time>
      </trkpt>
      <trkpt lat="31.69578990" lon="35.01120480">
        <ele>339.00000</ele>
        <time>2010-01-01T04:33:33Z</time>
      </trkpt>
      <trkpt lat="31.69399640" lon="35.01037650">
        <ele>334.00000</ele>
        <time>2010-01-01T04:34:50Z</time>
      </trkpt>
      <trkpt lat="31.69270270" lon="35.00923870">
        <ele>332.00000</ele>
        <time>2010-01-01T04:35:55Z</time>
      </trkpt>
      <trkpt lat="31.69161960" lon="35.00763830">
        <ele>332.00000</ele>
        <time>2010-01-01T04:37:05Z</time>
      </trkpt>
      <trkpt lat="31.69061580" lon="35.00616060">
        <ele>330.00000</ele>
        <time>2010-01-01T04:38:09Z</time>
      </trkpt>
      <trkpt lat="31.68889770" lon="35.00323650">
        <ele>334.00000</ele>
        <time>2010-01-01T04:40:10Z</time>
      </trkpt>
      <trkpt lat="31.68720690" lon="35.00077440">
        <ele>327.00000</ele>
        <time>2010-01-01T04:41:58Z</time>
      </trkpt>
      <trkpt lat="31.68376530" lon="35.00222860">
        <ele>310.00000</ele>
        <time>2010-01-01T04:44:24Z</time>
      </trkpt>
      <trkpt lat="31.67644700" lon="35.00537490">
        <ele>316.00000</ele>
        <time>2010-01-01T04:49:36Z</time>
      </trkpt>
      <trkpt lat="31.67530860" lon="35.00606790">
        <ele>322.00000</ele>
        <time>2010-01-01T04:50:28Z</time>
      </trkpt>
      <trkpt lat="31.67565640" lon="35.00876330">
        <ele>326.00000</ele>
        <time>2010-01-01T04:52:01Z</time>
      </trkpt>
      <trkpt lat="31.67330720" lon="35.01209550">
        <ele>358.00000</ele>
        <time>2010-01-01T04:54:28Z</time>
      </trkpt>
      <trkpt lat="31.67272450" lon="35.01588210">
        <ele>379.00000</ele>
        <time>2010-01-01T04:56:39Z</time>
      </trkpt>
      <trkpt lat="31.67198430" lon="35.01324530">
        <ele>360.00000</ele>
        <time>2010-01-01T04:58:14Z</time>
      </trkpt>
      <trkpt lat="31.66948100" lon="35.01221830">
        <ele>335.00000</ele>
        <time>2010-01-01T05:00:00Z</time>
      </trkpt>
      <trkpt lat="31.66771070" lon="35.00935390">
        <ele>331.00000</ele>
        <time>2010-01-01T05:02:00Z</time>
      </trkpt>
      <trkpt lat="31.66186960" lon="35.00724450">
        <ele>324.00000</ele>
        <time>2010-01-01T05:06:05Z</time>
      </trkpt>
      <trkpt lat="31.66024930" lon="35.00671630">
        <ele>336.00000</ele>
        <time>2010-01-01T05:07:12Z</time>
      </trkpt>
      <trkpt lat="31.65849280" lon="35.00567960">
        <ele>354.00000</ele>
        <time>2010-01-01T05:08:31Z</time>
      </trkpt>
      <trkpt lat="31.65740330" lon="35.00443960">
        <ele>364.00000</ele>
        <time>2010-01-01T05:09:32Z</time>
      </trkpt>
      <trkpt lat="31.65638750" lon="35.00279490">
        <ele>377.00000</ele>
        <time>2010-01-01T05:10:41Z</time>
      </trkpt>
      <trkpt lat="31.65569330" lon="35.00140950">
        <ele>387.00000</ele>
        <time>2010-01-01T05:11:36Z</time>
      </trkpt>
      <trkpt lat="31.65564080" lon="34.99967570">
        <ele>392.00000</ele>
        <time>2010-01-01T05:12:35Z</time>
      </trkpt>
      <trkpt lat="31.65484800" lon="34.99860830">
        <ele>390.00000</ele>
        <time>2010-01-01T05:13:23Z</time>
      </trkpt>
      <trkpt lat="31.65494170" lon="34.99560310">
        <ele>420.00000</ele>
        <time>2010-01-01T05:15:06Z</time>
      </trkpt>
      <trkpt lat="31.65481690" lon="34.99488120">
        <ele>417.00000</ele>
        <time>2010-01-01T05:15:31Z</time>
      </trkpt>
      <trkpt lat="31.65434630" lon="34.99421770">
        <ele>411.00000</ele>
        <time>2010-01-01T05:16:00Z</time>
      </trkpt>
      <trkpt lat="31.65324540" lon="34.99228150">
        <ele>402.00000</ele>
        <time>2010-01-01T05:17:19Z</time>
      </trkpt>
      <trkpt lat="31.65316880" lon="34.99186210">
        <ele>400.00000</ele>
        <time>2010-01-01T05:17:34Z</time>
      </trkpt>
      <trkpt lat="31.65252440" lon="34.99060430">
        <ele>392.00000</ele>
        <time>2010-01-01T05:18:24Z</time>
      </trkpt>
      <trkpt lat="31.65271170" lon="34.98974210">
        <ele>391.00000</ele>
        <time>2010-01-01T05:18:54Z</time>
      </trkpt>
      <trkpt lat="31.65259530" lon="34.98806350">
        <ele>392.00000</ele>
        <time>2010-01-01T05:19:52Z</time>
      </trkpt>
      <trkpt lat="31.65363220" lon="34.98664750">
        <ele>383.00000</ele>
        <time>2010-01-01T05:20:55Z</time>
      </trkpt>
      <trkpt lat="31.65346120" lon="34.98587450">
        <ele>381.00000</ele>
        <time>2010-01-01T05:21:23Z</time>
      </trkpt>
      <trkpt lat="31.65293040" lon="34.98516910">
        <ele>384.00000</ele>
        <time>2010-01-01T05:21:55Z</time>
      </trkpt>
      <trkpt lat="31.65228740" lon="34.98486100">
        <ele>391.00000</ele>
        <time>2010-01-01T05:22:23Z</time>
      </trkpt>
      <trkpt lat="31.65183260" lon="34.98419970">
        <ele>386.00000</ele>
        <time>2010-01-01T05:22:52Z</time>
      </trkpt>
      <trkpt lat="31.65171810" lon="34.98336010">
        <ele>376.00000</ele>
        <time>2010-01-01T05:23:20Z</time>
      </trkpt>
      <trkpt lat="31.65137740" lon="34.98309590">
        <ele>376.00000</ele>
        <time>2010-01-01T05:23:37Z</time>
      </trkpt>
      <trkpt lat="31.65024340" lon="34.98316500">
        <ele>382.00000</ele>
        <time>2010-01-01T05:24:22Z</time>
      </trkpt>
      <trkpt lat="31.65012970" lon="34.98290010">
        <ele>378.00000</ele>
        <time>2010-01-01T05:24:32Z</time>
      </trkpt>
      <trkpt lat="31.64995720" lon="34.98157510">
        <ele>370.00000</ele>
        <time>2010-01-01T05:25:18Z</time>
      </trkpt>
      <trkpt lat="31.64859600" lon="34.98126920">
        <ele>388.00000</ele>
        <time>2010-01-01T05:26:14Z</time>
      </trkpt>
      <trkpt lat="31.64780300" lon="34.98167650">
        <ele>399.00000</ele>
        <time>2010-01-01T05:26:48Z</time>
      </trkpt>
      <trkpt lat="31.64727780" lon="34.98157560">
        <ele>401.00000</ele>
        <time>2010-01-01T05:27:09Z</time>
      </trkpt>
      <trkpt lat="31.64666390" lon="34.98072470">
        <ele>401.00000</ele>
        <time>2010-01-01T05:27:48Z</time>
      </trkpt>
      <trkpt lat="31.64599460" lon="34.98161320">
        <ele>409.00000</ele>
        <time>2010-01-01T05:28:28Z</time>
      </trkpt>
      <trkpt lat="31.64526670" lon="34.98250110">
        <ele>417.00000</ele>
        <time>2010-01-01T05:29:10Z</time>
      </trkpt>
      <trkpt lat="31.64351700" lon="34.98277860">
        <ele>418.00000</ele>
        <time>2010-01-01T05:30:21Z</time>
      </trkpt>
      <trkpt lat="31.64302220" lon="34.98332510">
        <ele>421.00000</ele>
        <time>2010-01-01T05:30:48Z</time>
      </trkpt>
      <trkpt lat="31.64232380" lon="34.98411100">
        <ele>421.00000</ele>
        <time>2010-01-01T05:31:27Z</time>
      </trkpt>
      <trkpt lat="31.64141750" lon="34.98312440">
        <ele>410.00000</ele>
        <time>2010-01-01T05:32:16Z</time>
      </trkpt>
      <trkpt lat="31.64060050" lon="34.98288790">
        <ele>412.00000</ele>
        <time>2010-01-01T05:32:50Z</time>
      </trkpt>
      <trkpt lat="31.63995890" lon="34.98319620">
        <ele>420.00000</ele>
        <time>2010-01-01T05:33:17Z</time>
      </trkpt>
      <trkpt lat="31.63896770" lon="34.98343720">
        <ele>423.00000</ele>
        <time>2010-01-01T05:33:58Z</time>
      </trkpt>
      <trkpt lat="31.63902480" lon="34.98278930">
        <ele>419.00000</ele>
        <time>2010-01-01T05:34:20Z</time>
      </trkpt>
      <trkpt lat="31.63922580" lon="34.98108440">
        <ele>424.00000</ele>
        <time>2010-01-01T05:35:19Z</time>
      </trkpt>
      <trkpt lat="31.63872900" lon="34.98036930">
        <ele>428.00000</ele>
        <time>2010-01-01T05:35:50Z</time>
      </trkpt>
      <trkpt lat="31.63805760" lon="34.98006400">
        <ele>423.00000</ele>
        <time>2010-01-01T05:36:19Z</time>
      </trkpt>
      <trkpt lat="31.63770620" lon="34.97951950">
        <ele>417.00000</ele>
        <time>2010-01-01T05:36:42Z</time>
      </trkpt>
      <trkpt lat="31.63782070" lon="34.97832580">
        <ele>409.00000</ele>
        <time>2010-01-01T05:37:23Z</time>
      </trkpt>
      <trkpt lat="31.63741020" lon="34.97703110">
        <ele>399.00000</ele>
        <time>2010-01-01T05:38:10Z</time>
      </trkpt>
      <trkpt lat="31.63659140" lon="34.97611260">
        <ele>395.00000</ele>
        <time>2010-01-01T05:38:56Z</time>
      </trkpt>
      <trkpt lat="31.63606620" lon="34.97601190">
        <ele>396.00000</ele>
        <time>2010-01-01T05:39:17Z</time>
      </trkpt>
      <trkpt lat="31.63309280" lon="34.97697380">
        <ele>410.00000</ele>
        <time>2010-01-01T05:41:20Z</time>
      </trkpt>
      <trkpt lat="31.63143070" lon="34.97721700">
        <ele>422.00000</ele>
        <time>2010-01-01T05:42:28Z</time>
      </trkpt>
      <trkpt lat="31.63032190" lon="34.97725390">
        <ele>420.00000</ele>
        <time>2010-01-01T05:43:12Z</time>
      </trkpt>
      <trkpt lat="31.62906870" lon="34.97776810">
        <ele>414.00000</ele>
        <time>2010-01-01T05:44:05Z</time>
      </trkpt>
      <trkpt lat="31.62822060" lon="34.97657700">
        <ele>402.00000</ele>
        <time>2010-01-01T05:44:58Z</time>
      </trkpt>
      <trkpt lat="31.62702380" lon="34.97600060">
        <ele>401.00000</ele>
        <time>2010-01-01T05:45:50Z</time>
      </trkpt>
      <trkpt lat="31.62422240" lon="34.97566650">
        <ele>392.00000</ele>
        <time>2010-01-01T05:47:42Z</time>
      </trkpt>
      <trkpt lat="31.62369720" lon="34.97536110">
        <ele>390.00000</ele>
        <time>2010-01-01T05:48:06Z</time>
      </trkpt>
      <trkpt lat="31.62334580" lon="34.97471450">
        <ele>391.00000</ele>
        <time>2010-01-01T05:48:32Z</time>
      </trkpt>
      <trkpt lat="31.62354730" lon="34.97318000">
        <ele>399.00000</ele>
        <time>2010-01-01T05:49:25Z</time>
      </trkpt>
      <trkpt lat="31.62357470" lon="34.97239580">
        <ele>396.00000</ele>
        <time>2010-01-01T05:49:52Z</time>
      </trkpt>
      <trkpt lat="31.62403780" lon="34.97051940">
        <ele>385.00000</ele>
        <time>2010-01-01T05:50:58Z</time>
      </trkpt>
      <trkpt lat="31.62359930" lon="34.96980460">
        <ele>390.00000</ele>
        <time>2010-01-01T05:51:28Z</time>
      </trkpt>
      <trkpt lat="31.62286890" lon="34.96926140">
        <ele>396.00000</ele>
        <time>2010-01-01T05:52:03Z</time>
      </trkpt>
      <trkpt lat="31.62263250" lon="34.96783000">
        <ele>395.00000</ele>
        <time>2010-01-01T05:52:53Z</time>
      </trkpt>
      <trkpt lat="31.62216480" lon="34.96718340">
        <ele>403.00000</ele>
        <time>2010-01-01T05:53:22Z</time>
      </trkpt>
      <trkpt lat="31.62070490" lon="34.96640340">
        <ele>405.00000</ele>
        <time>2010-01-01T05:54:26Z</time>
      </trkpt>
      <trkpt lat="31.61991660" lon="34.96620100">
        <ele>404.00000</ele>
        <time>2010-01-01T05:54:58Z</time>
      </trkpt>
      <trkpt lat="31.61842970" lon="34.96661360">
        <ele>410.00000</ele>
        <time>2010-01-01T05:55:59Z</time>
      </trkpt>
      <trkpt lat="31.61752540" lon="34.96665030">
        <ele>408.00000</ele>
        <time>2010-01-01T05:56:35Z</time>
      </trkpt>
      <trkpt lat="31.61472390" lon="34.96590750">
        <ele>411.00000</ele>
        <time>2010-01-01T05:58:30Z</time>
      </trkpt>
      <trkpt lat="31.61425630" lon="34.96556800">
        <ele>406.00000</ele>
        <time>2010-01-01T05:58:52Z</time>
      </trkpt>
      <trkpt lat="31.61390550" lon="34.96495550">
        <ele>401.00000</ele>
        <time>2010-01-01T05:59:18Z</time>
      </trkpt>
      <trkpt lat="31.61348890" lon="34.96090000">
        <ele>369.00000</ele>
        <time>2010-01-01T06:01:37Z</time>
      </trkpt>
      <trkpt lat="31.61310770" lon="34.95974240">
        <ele>361.00000</ele>
        <time>2010-01-01T06:02:19Z</time>
      </trkpt>
      <trkpt lat="31.61266800" lon="34.95882330">
        <ele>353.00000</ele>
        <time>2010-01-01T06:02:55Z</time>
      </trkpt>
      <trkpt lat="31.61313130" lon="34.95715180">
        <ele>345.00000</ele>
        <time>2010-01-01T06:03:55Z</time>
      </trkpt>
      <trkpt lat="31.61242770" lon="34.95527870">
        <ele>344.00000</ele>
        <time>2010-01-01T06:05:05Z</time>
      </trkpt>
      <trkpt lat="31.61172450" lon="34.95384930">
        <ele>337.00000</ele>
        <time>2010-01-01T06:06:01Z</time>
      </trkpt>
      <trkpt lat="31.61014890" lon="34.95344430">
        <ele>328.00000</ele>
        <time>2010-01-01T06:07:06Z</time>
      </trkpt>
      <trkpt lat="31.60907920" lon="34.95322130">
        <ele>327.00000</ele>
        <time>2010-01-01T06:07:49Z</time>
      </trkpt>
      <trkpt lat="31.60801820" lon="34.95364860">
        <ele>331.00000</ele>
        <time>2010-01-01T06:08:34Z</time>
      </trkpt>
      <trkpt lat="31.60695480" lon="34.95309640">
        <ele>345.00000</ele>
        <time>2010-01-01T06:09:21Z</time>
      </trkpt>
      <trkpt lat="31.60558310" lon="34.95199000">
        <ele>363.00000</ele>
        <time>2010-01-01T06:10:27Z</time>
      </trkpt>
      <trkpt lat="31.60499380" lon="34.95081600">
        <ele>381.00000</ele>
        <time>2010-01-01T06:11:14Z</time>
      </trkpt>
      <trkpt lat="31.60387420" lon="34.95003590">
        <ele>375.00000</ele>
        <time>2010-01-01T06:12:06Z</time>
      </trkpt>
      <trkpt lat="31.60250340" lon="34.94928850">
        <ele>391.00000</ele>
        <time>2010-01-01T06:13:06Z</time>
      </trkpt>
      <trkpt lat="31.60171920" lon="34.94850700">
        <ele>395.00000</ele>
        <time>2010-01-01T06:13:47Z</time>
      </trkpt>
      <trkpt lat="31.60143740" lon="34.94739770">
        <ele>390.00000</ele>
        <time>2010-01-01T06:14:27Z</time>
      </trkpt>
      <trkpt lat="31.60134500" lon="34.94318550">
        <ele>367.00000</ele>
        <time>2010-01-01T06:16:51Z</time>
      </trkpt>
      <trkpt lat="31.60108750" lon="34.94041090">
        <ele>358.00000</ele>
        <time>2010-01-01T06:18:26Z</time>
      </trkpt>
      <trkpt lat="31.60044090" lon="34.93855150">
        <ele>356.00000</ele>
        <time>2010-01-01T06:19:34Z</time>
      </trkpt>
      <trkpt lat="31.59951610" lon="34.93731310">
        <ele>343.00000</ele>
        <time>2010-01-01T06:20:30Z</time>
      </trkpt>
      <trkpt lat="31.59814480" lon="34.93653360">
        <ele>343.00000</ele>
        <time>2010-01-01T06:21:31Z</time>
      </trkpt>
      <trkpt lat="31.59660670" lon="34.93614620">
        <ele>349.00000</ele>
        <time>2010-01-01T06:22:34Z</time>
      </trkpt>
      <trkpt lat="31.59576940" lon="34.93670390">
        <ele>357.00000</ele>
        <time>2010-01-01T06:23:13Z</time>
      </trkpt>
      <trkpt lat="31.59465360" lon="34.93765430">
        <ele>369.00000</ele>
        <time>2010-01-01T06:24:08Z</time>
      </trkpt>
      <trkpt lat="31.59317520" lon="34.93876860">
        <ele>376.00000</ele>
        <time>2010-01-01T06:25:18Z</time>
      </trkpt>
      <trkpt lat="31.59144830" lon="34.94164660">
        <ele>396.00000</ele>
        <time>2010-01-01T06:27:18Z</time>
      </trkpt>
      <trkpt lat="31.59089040" lon="34.94220330">
        <ele>394.00000</ele>
        <time>2010-01-01T06:27:48Z</time>
      </trkpt>
      <trkpt lat="31.59030240" lon="34.94165010">
        <ele>402.00000</ele>
        <time>2010-01-01T06:28:18Z</time>
      </trkpt>
      <trkpt lat="31.58834470" lon="34.94093760">
        <ele>395.00000</ele>
        <time>2010-01-01T06:29:40Z</time>
      </trkpt>
      <trkpt lat="31.58655480" lon="34.94042010">
        <ele>379.00000</ele>
        <time>2010-01-01T06:30:54Z</time>
      </trkpt>
      <trkpt lat="31.58437500" lon="34.94029590">
        <ele>357.00000</ele>
        <time>2010-01-01T06:32:21Z</time>
      </trkpt>
      <trkpt lat="31.58269860" lon="34.94062730">
        <ele>340.00000</ele>
        <time>2010-01-01T06:33:29Z</time>
      </trkpt>
      <trkpt lat="31.58052030" lon="34.94135200">
        <ele>342.00000</ele>
        <time>2010-01-01T06:35:00Z</time>
      </trkpt>
      <trkpt lat="31.57898380" lon="34.94171550">
        <ele>343.00000</ele>
        <time>2010-01-01T06:36:03Z</time>
      </trkpt>
      <trkpt lat="31.57842450" lon="34.94142310">
        <ele>343.00000</ele>
        <time>2010-01-01T06:36:27Z</time>
      </trkpt>
      <trkpt lat="31.57758370" lon="34.94041380">
        <ele>352.00000</ele>
        <time>2010-01-01T06:37:15Z</time>
      </trkpt>
      <trkpt lat="31.57674090" lon="34.93842460">
        <ele>368.00000</ele>
        <time>2010-01-01T06:38:31Z</time>
      </trkpt>
      <trkpt lat="31.57592970" lon="34.93793740">
        <ele>374.00000</ele>
        <time>2010-01-01T06:39:07Z</time>
      </trkpt>
      <trkpt lat="31.57433480" lon="34.93709350">
        <ele>383.00000</ele>
        <time>2010-01-01T06:40:17Z</time>
      </trkpt>
      <trkpt lat="31.57391470" lon="34.93660520">
        <ele>386.00000</ele>
        <time>2010-01-01T06:40:41Z</time>
      </trkpt>
      <trkpt lat="31.57368820" lon="34.93530000">
        <ele>402.00000</ele>
        <time>2010-01-01T06:41:27Z</time>
      </trkpt>
      <trkpt lat="31.57206520" lon="34.93432550">
        <ele>381.00000</ele>
        <time>2010-01-01T06:42:40Z</time>
      </trkpt>
      <trkpt lat="31.57119850" lon="34.93419720">
        <ele>372.00000</ele>
        <time>2010-01-01T06:43:14Z</time>
      </trkpt>
      <trkpt lat="31.57008290" lon="34.93514740">
        <ele>376.00000</ele>
        <time>2010-01-01T06:44:10Z</time>
      </trkpt>
      <trkpt lat="31.56932850" lon="34.93541080">
        <ele>364.00000</ele>
        <time>2010-01-01T06:44:41Z</time>
      </trkpt>
      <trkpt lat="31.56826650" lon="34.93538110">
        <ele>356.00000</ele>
        <time>2010-01-01T06:45:24Z</time>
      </trkpt>
      <trkpt lat="31.56701020" lon="34.93600490">
        <ele>368.00000</ele>
        <time>2010-01-01T06:46:18Z</time>
      </trkpt>
      <trkpt lat="31.56572340" lon="34.93532340">
        <ele>371.00000</ele>
        <time>2010-01-01T06:47:15Z</time>
      </trkpt>
      <trkpt lat="31.56317550" lon="34.93317650">
        <ele>397.00000</ele>
        <time>2010-01-01T06:49:20Z</time>
      </trkpt>
      <trkpt lat="31.56205550" lon="34.93226610">
        <ele>395.00000</ele>
        <time>2010-01-01T06:50:15Z</time>
      </trkpt>
      <trkpt lat="31.56085340" lon="34.93220440">
        <ele>381.00000</ele>
        <time>2010-01-01T06:51:03Z</time>
      </trkpt>
      <trkpt lat="31.55897820" lon="34.93093720">
        <ele>374.00000</ele>
        <time>2010-01-01T06:52:30Z</time>
      </trkpt>
      <trkpt lat="31.55749560" lon="34.93028880">
        <ele>372.00000</ele>
        <time>2010-01-01T06:53:33Z</time>
      </trkpt>
      <trkpt lat="31.55531510" lon="34.92996910">
        <ele>348.00000</ele>
        <time>2010-01-01T06:55:01Z</time>
      </trkpt>
      <trkpt lat="31.55333150" lon="34.93033390">
        <ele>354.00000</ele>
        <time>2010-01-01T06:56:21Z</time>
      </trkpt>
      <trkpt lat="31.55171260" lon="34.93128520">
        <ele>364.00000</ele>
        <time>2010-01-01T06:57:34Z</time>
      </trkpt>
      <trkpt lat="31.55098640" lon="34.93135260">
        <ele>367.00000</ele>
        <time>2010-01-01T06:58:03Z</time>
      </trkpt>
      <trkpt lat="31.54998050" lon="34.93158440">
        <ele>371.00000</ele>
        <time>2010-01-01T06:58:44Z</time>
      </trkpt>
      <trkpt lat="31.54928280" lon="34.93194520">
        <ele>378.00000</ele>
        <time>2010-01-01T06:59:15Z</time>
      </trkpt>
      <trkpt lat="31.54811250" lon="34.93358030">
        <ele>395.00000</ele>
        <time>2010-01-01T07:00:27Z</time>
      </trkpt>
      <trkpt lat="31.54699670" lon="34.93459540">
        <ele>403.00000</ele>
        <time>2010-01-01T07:01:24Z</time>
      </trkpt>
      <trkpt lat="31.54571350" lon="34.93551300">
        <ele>403.00000</ele>
        <time>2010-01-01T07:02:24Z</time>
      </trkpt>
      <trkpt lat="31.54448280" lon="34.93505960">
        <ele>392.00000</ele>
        <time>2010-01-01T07:03:16Z</time>
      </trkpt>
      <trkpt lat="31.54392210" lon="34.93437590">
        <ele>388.00000</ele>
        <time>2010-01-01T07:03:48Z</time>
      </trkpt>
      <trkpt lat="31.54291220" lon="34.93264980">
        <ele>384.00000</ele>
        <time>2010-01-01T07:05:00Z</time>
      </trkpt>
      <trkpt lat="31.54134720" lon="34.93255620">
        <ele>385.00000</ele>
        <time>2010-01-01T07:06:02Z</time>
      </trkpt>
      <trkpt lat="31.53992230" lon="34.93288680">
        <ele>370.00000</ele>
        <time>2010-01-01T07:07:00Z</time>
      </trkpt>
      <trkpt lat="31.53799360" lon="34.93256610">
        <ele>362.00000</ele>
        <time>2010-01-01T07:08:18Z</time>
      </trkpt>
      <trkpt lat="31.53726620" lon="34.93240520">
        <ele>358.00000</ele>
        <time>2010-01-01T07:08:48Z</time>
      </trkpt>
      <trkpt lat="31.53329890" lon="34.93297210">
        <ele>342.00000</ele>
        <time>2010-01-01T07:11:28Z</time>
      </trkpt>
      <trkpt lat="31.53237520" lon="34.93219150">
        <ele>346.00000</ele>
        <time>2010-01-01T07:12:14Z</time>
      </trkpt>
      <trkpt lat="31.53083460" lon="34.93069510">
        <ele>343.00000</ele>
        <time>2010-01-01T07:13:34Z</time>
      </trkpt>
      <trkpt lat="31.53008070" lon="34.93092580">
        <ele>353.00000</ele>
        <time>2010-01-01T07:14:05Z</time>
      </trkpt>
      <trkpt lat="31.52885360" lon="34.93223470">
        <ele>370.00000</ele>
        <time>2010-01-01T07:15:11Z</time>
      </trkpt>
      <trkpt lat="31.52765550" lon="34.93390200">
        <ele>376.00000</ele>
        <time>2010-01-01T07:16:26Z</time>
      </trkpt>
      <trkpt lat="31.52508540" lon="34.93443210">
        <ele>381.00000</ele>
        <time>2010-01-01T07:18:10Z</time>
      </trkpt>
      <trkpt lat="31.52416290" lon="34.93430420">
        <ele>384.00000</ele>
        <time>2010-01-01T07:18:47Z</time>
      </trkpt>
      <trkpt lat="31.52287550" lon="34.93342690">
        <ele>384.00000</ele>
        <time>2010-01-01T07:19:47Z</time>
      </trkpt>
      <trkpt lat="31.51955510" lon="34.93572040">
        <ele>407.00000</ele>
        <time>2010-01-01T07:22:21Z</time>
      </trkpt>
      <trkpt lat="31.51849320" lon="34.93595220">
        <ele>400.00000</ele>
        <time>2010-01-01T07:23:04Z</time>
      </trkpt>
      <trkpt lat="31.51742790" lon="34.93435680">
        <ele>403.00000</ele>
        <time>2010-01-01T07:24:13Z</time>
      </trkpt>
      <trkpt lat="31.51642110" lon="34.93413120">
        <ele>398.00000</ele>
        <time>2010-01-01T07:24:55Z</time>
      </trkpt>
      <trkpt lat="31.51678280" lon="34.93324960">
        <ele>389.00000</ele>
        <time>2010-01-01T07:25:28Z</time>
      </trkpt>
      <trkpt lat="31.51596790" lon="34.93142480">
        <ele>403.00000</ele>
        <time>2010-01-01T07:26:38Z</time>
      </trkpt>
      <trkpt lat="31.51507380" lon="34.93146040">
        <ele>412.00000</ele>
        <time>2010-01-01T07:27:14Z</time>
      </trkpt>
      <trkpt lat="31.51451520" lon="34.93152710">
        <ele>410.00000</ele>
        <time>2010-01-01T07:27:36Z</time>
      </trkpt>
      <trkpt lat="31.51390420" lon="34.93329070">
        <ele>415.00000</ele>
        <time>2010-01-01T07:28:41Z</time>
      </trkpt>
      <trkpt lat="31.51396430" lon="34.93528020">
        <ele>416.00000</ele>
        <time>2010-01-01T07:29:49Z</time>
      </trkpt>
      <trkpt lat="31.51360110" lon="34.93537910">
        <ele>419.00000</ele>
        <time>2010-01-01T07:30:04Z</time>
      </trkpt>
      <trkpt lat="31.51374310" lon="34.93639030">
        <ele>426.00000</ele>
        <time>2010-01-01T07:30:39Z</time>
      </trkpt>
      <trkpt lat="31.51243060" lon="34.93675290">
        <ele>426.00000</ele>
        <time>2010-01-01T07:31:33Z</time>
      </trkpt>
      <trkpt lat="31.51147810" lon="34.93571170">
        <ele>428.00000</ele>
        <time>2010-01-01T07:32:25Z</time>
      </trkpt>
      <trkpt lat="31.50541210" lon="34.93524050">
        <ele>403.00000</ele>
        <time>2010-01-01T07:36:29Z</time>
      </trkpt>
      <trkpt lat="31.50239350" lon="34.93495580">
        <ele>389.00000</ele>
        <time>2010-01-01T07:38:30Z</time>
      </trkpt>
      <trkpt lat="31.50127350" lon="34.93404590">
        <ele>388.00000</ele>
        <time>2010-01-01T07:39:25Z</time>
      </trkpt>
      <trkpt lat="31.50034990" lon="34.93359170">
        <ele>388.00000</ele>
        <time>2010-01-01T07:40:05Z</time>
      </trkpt>
      <trkpt lat="31.49878570" lon="34.93379190">
        <ele>392.00000</ele>
        <time>2010-01-01T07:41:08Z</time>
      </trkpt>
      <trkpt lat="31.49705400" lon="34.93441700">
        <ele>401.00000</ele>
        <time>2010-01-01T07:42:20Z</time>
      </trkpt>
      <trkpt lat="31.49616180" lon="34.93543060">
        <ele>412.00000</ele>
        <time>2010-01-01T07:43:10Z</time>
      </trkpt>
      <trkpt lat="31.49504390" lon="34.93543370">
        <ele>411.00000</ele>
        <time>2010-01-01T07:43:55Z</time>
      </trkpt>
      <trkpt lat="31.49129670" lon="34.93436890">
        <ele>411.00000</ele>
        <time>2010-01-01T07:46:29Z</time>
      </trkpt>
      <trkpt lat="31.48953410" lon="34.93346050">
        <ele>399.00000</ele>
        <time>2010-01-01T07:47:46Z</time>
      </trkpt>
      <trkpt lat="31.48883440" lon="34.93300620">
        <ele>392.00000</ele>
        <time>2010-01-01T07:48:18Z</time>
      </trkpt>
      <trkpt lat="31.48793600" lon="34.93118230">
        <ele>384.00000</ele>
        <time>2010-01-01T07:49:30Z</time>
      </trkpt>
      <trkpt lat="31.48826310" lon="34.93009210">
        <ele>380.00000</ele>
        <time>2010-01-01T07:50:09Z</time>
      </trkpt>
      <trkpt lat="31.48685860" lon="34.92802360">
        <ele>389.00000</ele>
        <time>2010-01-01T07:51:40Z</time>
      </trkpt>
      <trkpt lat="31.48459500" lon="34.92677390">
        <ele>391.00000</ele>
        <time>2010-01-01T07:53:20Z</time>
      </trkpt>
      <trkpt lat="31.48028530" lon="34.92534230">
        <ele>399.00000</ele>
        <time>2010-01-01T07:56:19Z</time>
      </trkpt>
      <trkpt lat="31.47893550" lon="34.92352520">
        <ele>401.00000</ele>
        <time>2010-01-01T07:57:41Z</time>
      </trkpt>
      <trkpt lat="31.47607310" lon="34.91932570">
        <ele>421.00000</ele>
        <time>2010-01-01T08:00:45Z</time>
      </trkpt>
      <trkpt lat="31.47241160" lon="34.91889730">
        <ele>405.00000</ele>
        <time>2010-01-01T08:03:12Z</time>
      </trkpt>
      <trkpt lat="31.47079180" lon="34.91670400">
        <ele>391.00000</ele>
        <time>2010-01-01T08:04:51Z</time>
      </trkpt>
      <trkpt lat="31.47046460" lon="34.91475840">
        <ele>385.00000</ele>
        <time>2010-01-01T08:05:59Z</time>
      </trkpt>
      <trkpt lat="31.46927810" lon="34.91394540">
        <ele>375.00000</ele>
        <time>2010-01-01T08:06:54Z</time>
      </trkpt>
      <trkpt lat="31.46816580" lon="34.91366480">
        <ele>376.00000</ele>
        <time>2010-01-01T08:07:39Z</time>
      </trkpt>
      <trkpt lat="31.46717490" lon="34.91311040">
        <ele>377.00000</ele>
        <time>2010-01-01T08:08:23Z</time>
      </trkpt>
      <trkpt lat="31.46594560" lon="34.91299470">
        <ele>381.00000</ele>
        <time>2010-01-01T08:09:13Z</time>
      </trkpt>
      <trkpt lat="31.46461200" lon="34.91208280">
        <ele>388.00000</ele>
        <time>2010-01-01T08:10:15Z</time>
      </trkpt>
      <trkpt lat="31.46457580" lon="34.91108770">
        <ele>397.00000</ele>
        <time>2010-01-01T08:10:49Z</time>
      </trkpt>
      <trkpt lat="31.46490820" lon="34.90742260">
        <ele>416.00000</ele>
        <time>2010-01-01T08:12:54Z</time>
      </trkpt>
      <trkpt lat="31.46473420" lon="34.90602940">
        <ele>415.00000</ele>
        <time>2010-01-01T08:13:43Z</time>
      </trkpt>
      <trkpt lat="31.46363700" lon="34.90392280">
        <ele>429.00000</ele>
        <time>2010-01-01T08:15:07Z</time>
      </trkpt>
      <trkpt lat="31.46274890" lon="34.90360700">
        <ele>430.00000</ele>
        <time>2010-01-01T08:15:44Z</time>
      </trkpt>
      <trkpt lat="31.46148490" lon="34.90325280">
        <ele>439.00000</ele>
        <time>2010-01-01T08:16:36Z</time>
      </trkpt>
      <trkpt lat="31.46097530" lon="34.90421010">
        <ele>454.00000</ele>
        <time>2010-01-01T08:17:15Z</time>
      </trkpt>
      <trkpt lat="31.45998740" lon="34.90504930">
        <ele>467.00000</ele>
        <time>2010-01-01T08:18:03Z</time>
      </trkpt>
      <trkpt lat="31.45841880" lon="34.90557220">
        <ele>469.00000</ele>
        <time>2010-01-01T08:19:09Z</time>
      </trkpt>
      <trkpt lat="31.45537970" lon="34.90514420">
        <ele>459.00000</ele>
        <time>2010-01-01T08:21:11Z</time>
      </trkpt>
      <trkpt lat="31.45336840" lon="34.90622600">
        <ele>448.00000</ele>
        <time>2010-01-01T08:22:40Z</time>
      </trkpt>
      <trkpt lat="31.44803610" lon="34.90313780">
        <ele>437.00000</ele>
        <time>2010-01-01T08:26:38Z</time>
      </trkpt>
      <trkpt lat="31.44605060" lon="34.90071540">
        <ele>428.00000</ele>
        <time>2010-01-01T08:28:33Z</time>
      </trkpt>
      <trkpt lat="31.44116480" lon="34.89882040">
        <ele>413.00000</ele>
        <time>2010-01-01T08:31:59Z</time>
      </trkpt>
      <trkpt lat="31.43863550" lon="34.89739600">
        <ele>403.00000</ele>
        <time>2010-01-01T08:33:51Z</time>
      </trkpt>
      <trkpt lat="31.43664800" lon="34.89417800">
        <ele>398.00000</ele>
        <time>2010-01-01T08:36:07Z</time>
      </trkpt>
      <trkpt lat="31.43548610" lon="34.89366400">
        <ele>393.00000</ele>
        <time>2010-01-01T08:36:56Z</time>
      </trkpt>
      <trkpt lat="31.43449530" lon="34.89326940">
        <ele>392.00000</ele>
        <time>2010-01-01T08:37:38Z</time>
      </trkpt>
      <trkpt lat="31.43346820" lon="34.89207850">
        <ele>395.00000</ele>
        <time>2010-01-01T08:38:36Z</time>
      </trkpt>
      <trkpt lat="31.43298660" lon="34.89056740">
        <ele>396.00000</ele>
        <time>2010-01-01T08:39:31Z</time>
      </trkpt>
      <trkpt lat="31.43237190" lon="34.89049010">
        <ele>386.00000</ele>
        <time>2010-01-01T08:39:56Z</time>
      </trkpt>
      <trkpt lat="31.43110620" lon="34.88929990">
        <ele>381.00000</ele>
        <time>2010-01-01T08:41:01Z</time>
      </trkpt>
      <trkpt lat="31.43055840" lon="34.88854550">
        <ele>379.00000</ele>
        <time>2010-01-01T08:41:35Z</time>
      </trkpt>
      <trkpt lat="31.43004100" lon="34.88659710">
        <ele>376.00000</ele>
        <time>2010-01-01T08:42:44Z</time>
      </trkpt>
      <trkpt lat="31.42716860" lon="34.88449690">
        <ele>370.00000</ele>
        <time>2010-01-01T08:45:00Z</time>
      </trkpt>
      <trkpt lat="31.42306480" lon="34.88148610">
        <ele>371.00000</ele>
        <time>2010-01-01T08:48:14Z</time>
      </trkpt>
      <trkpt lat="31.42152840" lon="34.88133220">
        <ele>375.00000</ele>
        <time>2010-01-01T08:49:15Z</time>
      </trkpt>
      <trkpt lat="31.41514610" lon="34.88155370">
        <ele>374.00000</ele>
        <time>2010-01-01T08:53:31Z</time>
      </trkpt>
      <trkpt lat="31.40930990" lon="34.88181290">
        <ele>381.00000</ele>
        <time>2010-01-01T08:57:25Z</time>
      </trkpt>
      <trkpt lat="31.40340220" lon="34.88087860">
        <ele>395.00000</ele>
        <time>2010-01-01T09:01:23Z</time>
      </trkpt>
      <trkpt lat="31.40002280" lon="34.88081070">
        <ele>396.00000</ele>
        <time>2010-01-01T09:03:39Z</time>
      </trkpt>
      <trkpt lat="31.39718820" lon="34.88022380">
        <ele>403.00000</ele>
        <time>2010-01-01T09:05:34Z</time>
      </trkpt>
      <trkpt lat="31.39261100" lon="34.87884730">
        <ele>411.00000</ele>
        <time>2010-01-01T09:08:43Z</time>
      </trkpt>
      <trkpt lat="31.38939850" lon="34.87738620">
        <ele>414.00000</ele>
        <time>2010-01-01T09:11:01Z</time>
      </trkpt>
      <trkpt lat="31.38653040" lon="34.87699860">
        <ele>423.00000</ele>
        <time>2010-01-01T09:12:57Z</time>
      </trkpt>
      <trkpt lat="31.38325010" lon="34.87577710">
        <ele>435.00000</ele>
        <time>2010-01-01T09:15:14Z</time>
      </trkpt>
      <trkpt lat="31.38144020" lon="34.87534560">
        <ele>439.00000</ele>
        <time>2010-01-01T09:16:28Z</time>
      </trkpt>
      <trkpt lat="31.37781560" lon="34.87289180">
        <ele>450.00000</ele>
        <time>2010-01-01T09:19:16Z</time>
      </trkpt>
      <trkpt lat="31.37446420" lon="34.87055680">
        <ele>443.00000</ele>
        <time>2010-01-01T09:21:52Z</time>
      </trkpt>
      <trkpt lat="31.37391970" lon="34.87115530">
        <ele>442.00000</ele>
        <time>2010-01-01T09:22:22Z</time>
      </trkpt>
      <trkpt lat="31.37265940" lon="34.87223400">
        <ele>437.00000</ele>
        <time>2010-01-01T09:23:24Z</time>
      </trkpt>
      <trkpt lat="31.37078750" lon="34.87430940">
        <ele>430.00000</ele>
        <time>2010-01-01T09:25:08Z</time>
      </trkpt>
      <trkpt lat="31.36983080" lon="34.87391530">
        <ele>432.00000</ele>
        <time>2010-01-01T09:25:48Z</time>
      </trkpt>
      <trkpt lat="31.37037950" lon="34.87490770">
        <ele>430.00000</ele>
        <time>2010-01-01T09:26:29Z</time>
      </trkpt>
      <trkpt lat="31.36830980" lon="34.87956940">
        <ele>446.00000</ele>
        <time>2010-01-01T09:29:28Z</time>
      </trkpt>
      <trkpt lat="31.36522380" lon="34.88757610">
        <ele>461.00000</ele>
        <time>2010-01-01T09:34:28Z</time>
      </trkpt>
      <trkpt lat="31.36376820" lon="34.89231490">
        <ele>475.00000</ele>
        <time>2010-01-01T09:37:21Z</time>
      </trkpt>
      <trkpt lat="31.36240700" lon="34.89410980">
        <ele>488.00000</ele>
        <time>2010-01-01T09:38:43Z</time>
      </trkpt>
      <trkpt lat="31.36319400" lon="34.89482310">
        <ele>484.00000</ele>
        <time>2010-01-01T09:39:22Z</time>
      </trkpt>
      <trkpt lat="31.36353820" lon="34.89601550">
        <ele>486.00000</ele>
        <time>2010-01-01T09:40:06Z</time>
      </trkpt>
      <trkpt lat="31.36289160" lon="34.89681280">
        <ele>492.00000</ele>
        <time>2010-01-01T09:40:43Z</time>
      </trkpt>
      <trkpt lat="31.36156220" lon="34.89745420">
        <ele>507.00000</ele>
        <time>2010-01-01T09:41:41Z</time>
      </trkpt>
      <trkpt lat="31.36101720" lon="34.89797300">
        <ele>518.00000</ele>
        <time>2010-01-01T09:42:09Z</time>
      </trkpt>
      <trkpt lat="31.35982620" lon="34.89940880">
        <ele>523.00000</ele>
        <time>2010-01-01T09:43:17Z</time>
      </trkpt>
      <trkpt lat="31.35918040" lon="34.90052460">
        <ele>503.00000</ele>
        <time>2010-01-01T09:44:03Z</time>
      </trkpt>
      <trkpt lat="31.35904700" lon="34.90191720">
        <ele>490.00000</ele>
        <time>2010-01-01T09:44:51Z</time>
      </trkpt>
      <trkpt lat="31.35826410" lon="34.90287440">
        <ele>483.00000</ele>
        <time>2010-01-01T09:45:36Z</time>
      </trkpt>
      <trkpt lat="31.35666280" lon="34.90403350">
        <ele>477.00000</ele>
        <time>2010-01-01T09:46:52Z</time>
      </trkpt>
      <trkpt lat="31.35560540" lon="34.90427550">
        <ele>477.00000</ele>
        <time>2010-01-01T09:47:35Z</time>
      </trkpt>
      <trkpt lat="31.35461610" lon="34.90467650">
        <ele>466.00000</ele>
        <time>2010-01-01T09:48:17Z</time>
      </trkpt>
      <trkpt lat="31.35366060" lon="34.90475900">
        <ele>463.00000</ele>
        <time>2010-01-01T09:48:55Z</time>
      </trkpt>
      <trkpt lat="31.35253640" lon="34.90559790">
        <ele>451.00000</ele>
        <time>2010-01-01T09:49:49Z</time>
      </trkpt>
      <trkpt lat="31.35069630" lon="34.90699600">
        <ele>446.00000</ele>
        <time>2010-01-01T09:51:16Z</time>
      </trkpt>
      <trkpt lat="31.35008560" lon="34.90839000">
        <ele>442.00000</ele>
        <time>2010-01-01T09:52:10Z</time>
      </trkpt>
      <trkpt lat="31.34941220" lon="34.91252850">
        <ele>442.00000</ele>
        <time>2010-01-01T09:54:34Z</time>
      </trkpt>
      <trkpt lat="31.34767610" lon="34.91448320">
        <ele>428.00000</ele>
        <time>2010-01-01T09:56:10Z</time>
      </trkpt>
      <trkpt lat="31.34467970" lon="34.91779340">
        <ele>415.00000</ele>
        <time>2010-01-01T09:58:55Z</time>
      </trkpt>
      <trkpt lat="31.34355610" lon="34.91895020">
        <ele>408.00000</ele>
        <time>2010-01-01T09:59:55Z</time>
      </trkpt>
      <trkpt lat="31.34301890" lon="34.92296880">
        <ele>425.00000</ele>
        <time>2010-01-01T10:02:14Z</time>
      </trkpt>
      <trkpt lat="31.34233950" lon="34.92432300">
        <ele>419.00000</ele>
        <time>2010-01-01T10:03:08Z</time>
      </trkpt>
      <trkpt lat="31.33944660" lon="34.92818980">
        <ele>405.00000</ele>
        <time>2010-01-01T10:06:04Z</time>
      </trkpt>
      <trkpt lat="31.33798110" lon="34.92922810">
        <ele>397.00000</ele>
        <time>2010-01-01T10:07:12Z</time>
      </trkpt>
      <trkpt lat="31.33899650" lon="34.93101110">
        <ele>395.00000</ele>
        <time>2010-01-01T10:08:26Z</time>
      </trkpt>
      <trkpt lat="31.34014450" lon="34.93222460">
        <ele>396.00000</ele>
        <time>2010-01-01T10:09:27Z</time>
      </trkpt>
      <trkpt lat="31.33984470" lon="34.93367820">
        <ele>398.00000</ele>
        <time>2010-01-01T10:10:19Z</time>
      </trkpt>
      <trkpt lat="31.33974530" lon="34.93450300">
        <ele>404.00000</ele>
        <time>2010-01-01T10:10:47Z</time>
      </trkpt>
      <trkpt lat="31.34042170" lon="34.93556130">
        <ele>419.00000</ele>
        <time>2010-01-01T10:11:32Z</time>
      </trkpt>
      <trkpt lat="31.33917400" lon="34.93529010">
        <ele>413.00000</ele>
        <time>2010-01-01T10:12:23Z</time>
      </trkpt>
      <trkpt lat="31.33853380" lon="34.93537040">
        <ele>415.00000</ele>
        <time>2010-01-01T10:12:49Z</time>
      </trkpt>
      <trkpt lat="31.33964890" lon="34.93678050">
        <ele>411.00000</ele>
        <time>2010-01-01T10:13:55Z</time>
      </trkpt>
      <trkpt lat="31.33988580" lon="34.93729020">
        <ele>415.00000</ele>
        <time>2010-01-01T10:14:14Z</time>
      </trkpt>
      <trkpt lat="31.34019460" lon="34.93984130">
        <ele>423.00000</ele>
        <time>2010-01-01T10:15:42Z</time>
      </trkpt>
      <trkpt lat="31.34003000" lon="34.94149070">
        <ele>434.00000</ele>
        <time>2010-01-01T10:16:39Z</time>
      </trkpt>
      <trkpt lat="31.34053740" lon="34.94243160">
        <ele>439.00000</ele>
        <time>2010-01-01T10:17:17Z</time>
      </trkpt>
      <trkpt lat="31.34205490" lon="34.94297680">
        <ele>438.00000</ele>
        <time>2010-01-01T10:18:21Z</time>
      </trkpt>
      <trkpt lat="31.34279670" lon="34.94328890">
        <ele>435.00000</ele>
        <time>2010-01-01T10:18:52Z</time>
      </trkpt>
      <trkpt lat="31.34320050" lon="34.94305210">
        <ele>432.00000</ele>
        <time>2010-01-01T10:19:10Z</time>
      </trkpt>
      <trkpt lat="31.34411240" lon="34.94407050">
        <ele>432.00000</ele>
        <time>2010-01-01T10:20:01Z</time>
      </trkpt>
      <trkpt lat="31.34350910" lon="34.94548570">
        <ele>427.00000</ele>
        <time>2010-01-01T10:20:55Z</time>
      </trkpt>
      <trkpt lat="31.34243300" lon="34.94658800">
        <ele>421.00000</ele>
        <time>2010-01-01T10:21:52Z</time>
      </trkpt>
      <trkpt lat="31.34199740" lon="34.94780640">
        <ele>421.00000</ele>
        <time>2010-01-01T10:22:37Z</time>
      </trkpt>
      <trkpt lat="31.34176380" lon="34.94902450">
        <ele>418.00000</ele>
        <time>2010-01-01T10:23:20Z</time>
      </trkpt>
      <trkpt lat="31.34139690" lon="34.95083150">
        <ele>422.00000</ele>
        <time>2010-01-01T10:24:24Z</time>
      </trkpt>
      <trkpt lat="31.34075820" lon="34.95157900">
        <ele>423.00000</ele>
        <time>2010-01-01T10:25:00Z</time>
      </trkpt>
      <trkpt lat="31.33958140" lon="34.95279950">
        <ele>431.00000</ele>
        <time>2010-01-01T10:26:03Z</time>
      </trkpt>
      <trkpt lat="31.34022220" lon="34.95315090">
        <ele>433.00000</ele>
        <time>2010-01-01T10:26:31Z</time>
      </trkpt>
      <trkpt lat="31.34062620" lon="34.95299280">
        <ele>433.00000</ele>
        <time>2010-01-01T10:26:48Z</time>
      </trkpt>
      <trkpt lat="31.34153970" lon="34.95479630">
        <ele>437.00000</ele>
        <time>2010-01-01T10:28:00Z</time>
      </trkpt>
      <trkpt lat="31.34056790" lon="34.95746910">
        <ele>453.00000</ele>
        <time>2010-01-01T10:29:39Z</time>
      </trkpt>
      <trkpt lat="31.34083900" lon="34.95829250">
        <ele>462.00000</ele>
        <time>2010-01-01T10:30:09Z</time>
      </trkpt>
      <trkpt lat="31.34131100" lon="34.95848770">
        <ele>459.00000</ele>
        <time>2010-01-01T10:30:29Z</time>
      </trkpt>
      <trkpt lat="31.34198750" lon="34.95954600">
        <ele>463.00000</ele>
        <time>2010-01-01T10:31:14Z</time>
      </trkpt>
      <trkpt lat="31.34212390" lon="34.96056640">
        <ele>473.00000</ele>
        <time>2010-01-01T10:31:50Z</time>
      </trkpt>
      <trkpt lat="31.34206060" lon="34.96245150">
        <ele>475.00000</ele>
        <time>2010-01-01T10:32:54Z</time>
      </trkpt>
      <trkpt lat="31.34226490" lon="34.96358920">
        <ele>481.00000</ele>
        <time>2010-01-01T10:33:34Z</time>
      </trkpt>
      <trkpt lat="31.34283910" lon="34.96425510">
        <ele>485.00000</ele>
        <time>2010-01-01T10:34:06Z</time>
      </trkpt>
      <trkpt lat="31.34422170" lon="34.96495830">
        <ele>496.00000</ele>
        <time>2010-01-01T10:35:07Z</time>
      </trkpt>
      <trkpt lat="31.34493070" lon="34.96558500">
        <ele>499.00000</ele>
        <time>2010-01-01T10:35:42Z</time>
      </trkpt>
      <trkpt lat="31.34520190" lon="34.96648700">
        <ele>491.00000</ele>
        <time>2010-01-01T10:36:15Z</time>
      </trkpt>
      <trkpt lat="31.34672020" lon="34.96742550">
        <ele>476.00000</ele>
        <time>2010-01-01T10:37:24Z</time>
      </trkpt>
      <trkpt lat="31.34766400" lon="34.96758020">
        <ele>477.00000</ele>
        <time>2010-01-01T10:38:02Z</time>
      </trkpt>
      <trkpt lat="31.34749720" lon="34.96828730">
        <ele>484.00000</ele>
        <time>2010-01-01T10:38:27Z</time>
      </trkpt>
      <trkpt lat="31.34696080" lon="34.96989880">
        <ele>482.00000</ele>
        <time>2010-01-01T10:39:26Z</time>
      </trkpt>
      <trkpt lat="31.34662580" lon="34.97095940">
        <ele>482.00000</ele>
        <time>2010-01-01T10:40:05Z</time>
      </trkpt>
      <trkpt lat="31.34656050" lon="34.97205930">
        <ele>478.00000</ele>
        <time>2010-01-01T10:40:42Z</time>
      </trkpt>
      <trkpt lat="31.34625940" lon="34.97323810">
        <ele>472.00000</ele>
        <time>2010-01-01T10:41:24Z</time>
      </trkpt>
      <trkpt lat="31.34632960" lon="34.97457250">
        <ele>476.00000</ele>
        <time>2010-01-01T10:42:10Z</time>
      </trkpt>
      <trkpt lat="31.34616570" lon="34.97708590">
        <ele>479.00000</ele>
        <time>2010-01-01T10:43:36Z</time>
      </trkpt>
      <trkpt lat="31.34889970" lon="34.97955290">
        <ele>482.00000</ele>
        <time>2010-01-01T10:45:54Z</time>
      </trkpt>
      <trkpt lat="31.35008070" lon="34.98037480">
        <ele>475.00000</ele>
        <time>2010-01-01T10:46:49Z</time>
      </trkpt>
      <trkpt lat="31.35031840" lon="34.98147340">
        <ele>475.00000</ele>
        <time>2010-01-01T10:47:28Z</time>
      </trkpt>
      <trkpt lat="31.35075710" lon="34.98182570">
        <ele>478.00000</ele>
        <time>2010-01-01T10:47:50Z</time>
      </trkpt>
      <trkpt lat="31.35129710" lon="34.98221730">
        <ele>477.00000</ele>
        <time>2010-01-01T10:48:15Z</time>
      </trkpt>
      <trkpt lat="31.35092880" lon="34.98351400">
        <ele>491.00000</ele>
        <time>2010-01-01T10:49:02Z</time>
      </trkpt>
      <trkpt lat="31.35076130" lon="34.98426020">
        <ele>495.00000</ele>
        <time>2010-01-01T10:49:28Z</time>
      </trkpt>
      <trkpt lat="31.35002320" lon="34.98602930">
        <ele>509.00000</ele>
        <time>2010-01-01T10:50:35Z</time>
      </trkpt>
      <trkpt lat="31.35002520" lon="34.98708910">
        <ele>509.00000</ele>
        <time>2010-01-01T10:51:12Z</time>
      </trkpt>
      <trkpt lat="31.34942140" lon="34.98862190">
        <ele>542.00000</ele>
        <time>2010-01-01T10:52:09Z</time>
      </trkpt>
      <trkpt lat="31.35023110" lon="34.98936610">
        <ele>537.00000</ele>
        <time>2010-01-01T10:52:50Z</time>
      </trkpt>
      <trkpt lat="31.35006430" lon="34.99027000">
        <ele>537.00000</ele>
        <time>2010-01-01T10:53:22Z</time>
      </trkpt>
      <trkpt lat="31.34932410" lon="34.99093890">
        <ele>547.00000</ele>
        <time>2010-01-01T10:54:00Z</time>
      </trkpt>
      <trkpt lat="31.34854980" lon="34.99152980">
        <ele>559.00000</ele>
        <time>2010-01-01T10:54:37Z</time>
      </trkpt>
      <trkpt lat="31.34872010" lon="34.99258940">
        <ele>559.00000</ele>
        <time>2010-01-01T10:55:13Z</time>
      </trkpt>
      <trkpt lat="31.34909350" lon="34.99396290">
        <ele>571.00000</ele>
        <time>2010-01-01T10:56:03Z</time>
      </trkpt>
      <trkpt lat="31.34970050" lon="34.99443280">
        <ele>557.00000</ele>
        <time>2010-01-01T10:56:32Z</time>
      </trkpt>
      <trkpt lat="31.34953420" lon="34.99549330">
        <ele>562.00000</ele>
        <time>2010-01-01T10:57:09Z</time>
      </trkpt>
      <trkpt lat="31.34987280" lon="34.99663150">
        <ele>568.00000</ele>
        <time>2010-01-01T10:57:50Z</time>
      </trkpt>
      <trkpt lat="31.34997490" lon="34.99714130">
        <ele>578.00000</ele>
        <time>2010-01-01T10:58:08Z</time>
      </trkpt>
      <trkpt lat="31.35081830" lon="34.99776780">
        <ele>563.00000</ele>
        <time>2010-01-01T10:58:48Z</time>
      </trkpt>
      <trkpt lat="31.35021410" lon="34.99922200">
        <ele>571.00000</ele>
        <time>2010-01-01T10:59:43Z</time>
      </trkpt>
      <trkpt lat="31.35075640" lon="35.00114480">
        <ele>554.00000</ele>
        <time>2010-01-01T11:00:52Z</time>
      </trkpt>
      <trkpt lat="31.35069110" lon="35.00220520">
        <ele>555.00000</ele>
        <time>2010-01-01T11:01:29Z</time>
      </trkpt>
      <trkpt lat="31.35082740" lon="35.00334360">
        <ele>561.00000</ele>
        <time>2010-01-01T11:02:08Z</time>
      </trkpt>
      <trkpt lat="31.35197520" lon="35.00459770">
        <ele>559.00000</ele>
        <time>2010-01-01T11:03:11Z</time>
      </trkpt>
      <trkpt lat="31.35312400" lon="35.00644090">
        <ele>565.00000</ele>
        <time>2010-01-01T11:04:29Z</time>
      </trkpt>
      <trkpt lat="31.35316020" lon="35.00789330">
        <ele>559.00000</ele>
        <time>2010-01-01T11:05:18Z</time>
      </trkpt>
      <trkpt lat="31.35299420" lon="35.00958220">
        <ele>592.00000</ele>
        <time>2010-01-01T11:06:17Z</time>
      </trkpt>
      <trkpt lat="31.35316320" lon="35.01001390">
        <ele>604.00000</ele>
        <time>2010-01-01T11:06:33Z</time>
      </trkpt>
      <trkpt lat="31.35383660" lon="35.00946250">
        <ele>590.00000</ele>
        <time>2010-01-01T11:07:06Z</time>
      </trkpt>
      <trkpt lat="31.35444280" lon="35.00918640">
        <ele>580.00000</ele>
        <time>2010-01-01T11:07:32Z</time>
      </trkpt>
      <trkpt lat="31.35535270" lon="35.00945950">
        <ele>572.00000</ele>
        <time>2010-01-01T11:08:09Z</time>
      </trkpt>
      <trkpt lat="31.35552240" lon="35.01020500">
        <ele>573.00000</ele>
        <time>2010-01-01T11:08:36Z</time>
      </trkpt>
      <trkpt lat="31.35522060" lon="35.01107000">
        <ele>571.00000</ele>
        <time>2010-01-01T11:09:08Z</time>
      </trkpt>
      <trkpt lat="31.35444700" lon="35.01189610">
        <ele>572.00000</ele>
        <time>2010-01-01T11:09:50Z</time>
      </trkpt>
      <trkpt lat="31.35367330" lon="35.01272230">
        <ele>571.00000</ele>
        <time>2010-01-01T11:10:31Z</time>
      </trkpt>
      <trkpt lat="31.35293390" lon="35.01394100">
        <ele>578.00000</ele>
        <time>2010-01-01T11:11:23Z</time>
      </trkpt>
      <trkpt lat="31.35290120" lon="35.01476560">
        <ele>588.00000</ele>
        <time>2010-01-01T11:11:51Z</time>
      </trkpt>
      <trkpt lat="31.35367700" lon="35.01527460">
        <ele>587.00000</ele>
        <time>2010-01-01T11:12:26Z</time>
      </trkpt>
      <trkpt lat="31.35451960" lon="35.01546920">
        <ele>575.00000</ele>
        <time>2010-01-01T11:13:01Z</time>
      </trkpt>
      <trkpt lat="31.35539670" lon="35.01582110">
        <ele>568.00000</ele>
        <time>2010-01-01T11:13:38Z</time>
      </trkpt>
      <trkpt lat="31.35583550" lon="35.01652660">
        <ele>567.00000</ele>
        <time>2010-01-01T11:14:08Z</time>
      </trkpt>
      <trkpt lat="31.35566870" lon="35.01770530">
        <ele>568.00000</ele>
        <time>2010-01-01T11:14:49Z</time>
      </trkpt>
      <trkpt lat="31.35513200" lon="35.01911980">
        <ele>577.00000</ele>
        <time>2010-01-01T11:15:41Z</time>
      </trkpt>
      <trkpt lat="31.35469480" lon="35.01986680">
        <ele>586.00000</ele>
        <time>2010-01-01T11:16:12Z</time>
      </trkpt>
      <trkpt lat="31.35395450" lon="35.02045730">
        <ele>596.00000</ele>
        <time>2010-01-01T11:16:48Z</time>
      </trkpt>
      <trkpt lat="31.35384800" lon="35.02097880">
        <ele>605.00000</ele>
        <time>2010-01-01T11:17:07Z</time>
      </trkpt>
      <trkpt lat="31.35440790" lon="35.02103930">
        <ele>610.00000</ele>
        <time>2010-01-01T11:17:29Z</time>
      </trkpt>
      <trkpt lat="31.35499350" lon="35.02060330">
        <ele>603.00000</ele>
        <time>2010-01-01T11:17:57Z</time>
      </trkpt>
      <trkpt lat="31.35598000" lon="35.02053940">
        <ele>604.00000</ele>
        <time>2010-01-01T11:18:36Z</time>
      </trkpt>
      <trkpt lat="31.35662030" lon="35.02063090">
        <ele>600.00000</ele>
        <time>2010-01-01T11:19:02Z</time>
      </trkpt>
      <trkpt lat="31.35712650" lon="35.02063030">
        <ele>589.00000</ele>
        <time>2010-01-01T11:19:22Z</time>
      </trkpt>
      <trkpt lat="31.35787520" lon="35.02177810">
        <ele>584.00000</ele>
        <time>2010-01-01T11:20:12Z</time>
      </trkpt>
      <trkpt lat="31.35801060" lon="35.02326900">
        <ele>580.00000</ele>
        <time>2010-01-01T11:21:03Z</time>
      </trkpt>
      <trkpt lat="31.35753240" lon="35.02435790">
        <ele>593.00000</ele>
        <time>2010-01-01T11:21:45Z</time>
      </trkpt>
      <trkpt lat="31.35774730" lon="35.02572410">
        <ele>593.00000</ele>
        <time>2010-01-01T11:22:32Z</time>
      </trkpt>
      <trkpt lat="31.35774950" lon="35.02699820">
        <ele>605.00000</ele>
        <time>2010-01-01T11:23:16Z</time>
      </trkpt>
      <trkpt lat="31.35836500" lon="35.02886130">
        <ele>609.00000</ele>
        <time>2010-01-01T11:24:24Z</time>
      </trkpt>
      <trkpt lat="31.35804620" lon="35.02954540">
        <ele>621.00000</ele>
        <time>2010-01-01T11:24:51Z</time>
      </trkpt>
      <trkpt lat="31.35815410" lon="35.03053920">
        <ele>623.00000</ele>
        <time>2010-01-01T11:25:25Z</time>
      </trkpt>
      <trkpt lat="31.35815570" lon="35.03165780">
        <ele>623.00000</ele>
        <time>2010-01-01T11:26:03Z</time>
      </trkpt>
      <trkpt lat="31.35797020" lon="35.03249720">
        <ele>622.00000</ele>
        <time>2010-01-01T11:26:33Z</time>
      </trkpt>
      <trkpt lat="31.35749130" lon="35.03324380">
        <ele>631.00000</ele>
        <time>2010-01-01T11:27:05Z</time>
      </trkpt>
      <trkpt lat="31.35674600" lon="35.03386650">
        <ele>635.00000</ele>
        <time>2010-01-01T11:27:42Z</time>
      </trkpt>
      <trkpt lat="31.35632000" lon="35.03439540">
        <ele>634.00000</ele>
        <time>2010-01-01T11:28:06Z</time>
      </trkpt>
      <trkpt lat="31.35584110" lon="35.03526620">
        <ele>631.00000</ele>
        <time>2010-01-01T11:28:42Z</time>
      </trkpt>
      <trkpt lat="31.35557550" lon="35.03595020">
        <ele>634.00000</ele>
        <time>2010-01-01T11:29:08Z</time>
      </trkpt>
      <trkpt lat="31.35587010" lon="35.03691280">
        <ele>637.00000</ele>
        <time>2010-01-01T11:29:43Z</time>
      </trkpt>
      <trkpt lat="31.35675170" lon="35.03827820">
        <ele>641.00000</ele>
        <time>2010-01-01T11:30:41Z</time>
      </trkpt>
      <trkpt lat="31.35691350" lon="35.03955210">
        <ele>651.00000</ele>
        <time>2010-01-01T11:31:25Z</time>
      </trkpt>
      <trkpt lat="31.35702120" lon="35.04035970">
        <ele>656.00000</ele>
        <time>2010-01-01T11:31:53Z</time>
      </trkpt>
      <trkpt lat="31.35776940" lon="35.04156990">
        <ele>660.00000</ele>
        <time>2010-01-01T11:32:44Z</time>
      </trkpt>
      <trkpt lat="31.35753020" lon="35.04194330">
        <ele>660.00000</ele>
        <time>2010-01-01T11:33:00Z</time>
      </trkpt>
      <trkpt lat="31.35627740" lon="35.04216290">
        <ele>652.00000</ele>
        <time>2010-01-01T11:33:51Z</time>
      </trkpt>
      <trkpt lat="31.35563810" lon="35.04269210">
        <ele>645.00000</ele>
        <time>2010-01-01T11:34:22Z</time>
      </trkpt>
      <trkpt lat="31.35657260" lon="35.04362250">
        <ele>648.00000</ele>
        <time>2010-01-01T11:35:11Z</time>
      </trkpt>
      <trkpt lat="31.35630610" lon="35.04402720">
        <ele>644.00000</ele>
        <time>2010-01-01T11:35:29Z</time>
      </trkpt>
      <trkpt lat="31.35529260" lon="35.04368720">
        <ele>640.00000</ele>
        <time>2010-01-01T11:36:11Z</time>
      </trkpt>
      <trkpt lat="31.35451940" lon="35.04359550">
        <ele>637.00000</ele>
        <time>2010-01-01T11:36:42Z</time>
      </trkpt>
      <trkpt lat="31.35433300" lon="35.04390650">
        <ele>643.00000</ele>
        <time>2010-01-01T11:36:55Z</time>
      </trkpt>
      <trkpt lat="31.35569410" lon="35.04492920">
        <ele>656.00000</ele>
        <time>2010-01-01T11:38:00Z</time>
      </trkpt>
      <trkpt lat="31.35684240" lon="35.04620110">
        <ele>661.00000</ele>
        <time>2010-01-01T11:39:03Z</time>
      </trkpt>
      <trkpt lat="31.35764390" lon="35.04759790">
        <ele>666.00000</ele>
        <time>2010-01-01T11:40:00Z</time>
      </trkpt>
      <trkpt lat="31.35791210" lon="35.04859140">
        <ele>675.00000</ele>
        <time>2010-01-01T11:40:36Z</time>
      </trkpt>
      <trkpt lat="31.35767350" lon="35.04971030">
        <ele>679.00000</ele>
        <time>2010-01-01T11:41:16Z</time>
      </trkpt>
      <trkpt lat="31.35719390" lon="35.05017710">
        <ele>679.00000</ele>
        <time>2010-01-01T11:41:40Z</time>
      </trkpt>
      <trkpt lat="31.35684810" lon="35.05083030">
        <ele>686.00000</ele>
        <time>2010-01-01T11:42:07Z</time>
      </trkpt>
      <trkpt lat="31.35706250" lon="35.05142050">
        <ele>686.00000</ele>
        <time>2010-01-01T11:42:29Z</time>
      </trkpt>
      <trkpt lat="31.35764960" lon="35.05207160">
        <ele>684.00000</ele>
        <time>2010-01-01T11:43:01Z</time>
      </trkpt>
      <trkpt lat="31.35738350" lon="35.05260030">
        <ele>678.00000</ele>
        <time>2010-01-01T11:43:22Z</time>
      </trkpt>
      <trkpt lat="31.35698450" lon="35.05325380">
        <ele>679.00000</ele>
        <time>2010-01-01T11:43:49Z</time>
      </trkpt>
      <trkpt lat="31.35701200" lon="35.05387490">
        <ele>677.00000</ele>
        <time>2010-01-01T11:44:11Z</time>
      </trkpt>
      <trkpt lat="31.35765220" lon="35.05424670">
        <ele>680.00000</ele>
        <time>2010-01-01T11:44:39Z</time>
      </trkpt>
      <trkpt lat="31.35749330" lon="35.05483730">
        <ele>681.00000</ele>
        <time>2010-01-01T11:45:01Z</time>
      </trkpt>
      <trkpt lat="31.35730720" lon="35.05530350">
        <ele>682.00000</ele>
        <time>2010-01-01T11:45:18Z</time>
      </trkpt>
      <trkpt lat="31.35749470" lon="35.05598710">
        <ele>686.00000</ele>
        <time>2010-01-01T11:45:43Z</time>
      </trkpt>
      <trkpt lat="31.35675190" lon="35.05937480">
        <ele>697.00000</ele>
        <time>2010-01-01T11:47:42Z</time>
      </trkpt>
      <trkpt lat="31.35605880" lon="35.05950030">
        <ele>694.00000</ele>
        <time>2010-01-01T11:48:10Z</time>
      </trkpt>
      <trkpt lat="31.35499230" lon="35.05943950">
        <ele>691.00000</ele>
        <time>2010-01-01T11:48:53Z</time>
      </trkpt>
      <trkpt lat="31.35494100" lon="35.06102420">
        <ele>677.00000</ele>
        <time>2010-01-01T11:49:47Z</time>
      </trkpt>
      <trkpt lat="31.35470330" lon="35.06282690">
        <ele>675.00000</ele>
        <time>2010-01-01T11:50:50Z</time>
      </trkpt>
      <trkpt lat="31.35449040" lon="35.06332400">
        <ele>677.00000</ele>
        <time>2010-01-01T11:51:09Z</time>
      </trkpt>
      <trkpt lat="31.35409140" lon="35.06400810">
        <ele>680.00000</ele>
        <time>2010-01-01T11:51:37Z</time>
      </trkpt>
      <trkpt lat="31.35345210" lon="35.06466160">
        <ele>684.00000</ele>
        <time>2010-01-01T11:52:11Z</time>
      </trkpt>
      <trkpt lat="31.35291960" lon="35.06525280">
        <ele>683.00000</ele>
        <time>2010-01-01T11:52:40Z</time>
      </trkpt>
      <trkpt lat="31.35262730" lon="35.06612300">
        <ele>679.00000</ele>
        <time>2010-01-01T11:53:12Z</time>
      </trkpt>
      <trkpt lat="31.35244200" lon="35.06717980">
        <ele>674.00000</ele>
        <time>2010-01-01T11:53:49Z</time>
      </trkpt>
      <trkpt lat="31.35220280" lon="35.06795700">
        <ele>677.00000</ele>
        <time>2010-01-01T11:54:17Z</time>
      </trkpt>
      <trkpt lat="31.35175000" lon="35.06851690">
        <ele>676.00000</ele>
        <time>2010-01-01T11:54:44Z</time>
      </trkpt>
      <trkpt lat="31.35140440" lon="35.06941830">
        <ele>678.00000</ele>
        <time>2010-01-01T11:55:17Z</time>
      </trkpt>
      <trkpt lat="31.35209990" lon="35.07156100">
        <ele>681.00000</ele>
        <time>2010-01-01T11:56:36Z</time>
      </trkpt>
      <trkpt lat="31.35279360" lon="35.07193250">
        <ele>684.00000</ele>
        <time>2010-01-01T11:57:06Z</time>
      </trkpt>
      <trkpt lat="31.35460740" lon="35.07233400">
        <ele>685.00000</ele>
        <time>2010-01-01T11:58:20Z</time>
      </trkpt>
      <trkpt lat="31.35535630" lon="35.07456960">
        <ele>692.00000</ele>
        <time>2010-01-01T11:59:42Z</time>
      </trkpt>
      <trkpt lat="31.35407890" lon="35.07711910">
        <ele>705.00000</ele>
        <time>2010-01-01T12:01:23Z</time>
      </trkpt>
      <trkpt lat="31.35258840" lon="35.07957570">
        <ele>721.00000</ele>
        <time>2010-01-01T12:03:06Z</time>
      </trkpt>
      <trkpt lat="31.35277720" lon="35.08162600">
        <ele>731.00000</ele>
        <time>2010-01-01T12:04:17Z</time>
      </trkpt>
      <trkpt lat="31.35195240" lon="35.08330480">
        <ele>741.00000</ele>
        <time>2010-01-01T12:05:23Z</time>
      </trkpt>
      <trkpt lat="31.35331580" lon="35.08709320">
        <ele>754.00000</ele>
        <time>2010-01-01T12:07:44Z</time>
      </trkpt>
      <trkpt lat="31.35377060" lon="35.08861500">
        <ele>757.00000</ele>
        <time>2010-01-01T12:08:39Z</time>
      </trkpt>
      <trkpt lat="31.35262730" lon="35.09190980">
        <ele>765.00000</ele>
        <time>2010-01-01T12:10:40Z</time>
      </trkpt>
      <trkpt lat="31.35281600" lon="35.09402250">
        <ele>773.00000</ele>
        <time>2010-01-01T12:11:53Z</time>
      </trkpt>
      <trkpt lat="31.35241790" lon="35.09610430">
        <ele>781.00000</ele>
        <time>2010-01-01T12:13:06Z</time>
      </trkpt>
      <trkpt lat="31.35495460" lon="35.10057500">
        <ele>820.00000</ele>
        <time>2010-01-01T12:16:09Z</time>
      </trkpt>
      <trkpt lat="31.35458260" lon="35.10184960">
        <ele>815.00000</ele>
        <time>2010-01-01T12:16:55Z</time>
      </trkpt>
      <trkpt lat="31.35389010" lon="35.10290650">
        <ele>820.00000</ele>
        <time>2010-01-01T12:17:41Z</time>
      </trkpt>
      <trkpt lat="31.35437190" lon="35.10495640">
        <ele>835.00000</ele>
        <time>2010-01-01T12:18:54Z</time>
      </trkpt>
      <trkpt lat="31.35453320" lon="35.10660290">
        <ele>836.00000</ele>
        <time>2010-01-01T12:19:50Z</time>
      </trkpt>
      <trkpt lat="31.35396590" lon="35.10786040">
        <ele>846.00000</ele>
        <time>2010-01-01T12:20:39Z</time>
      </trkpt>
      <trkpt lat="31.35348610" lon="35.10890880">
        <ele>855.00000</ele>
        <time>2010-01-01T12:21:20Z</time>
      </trkpt>
      <trkpt lat="31.35298420" lon="35.10917770">
        <ele>856.00000</ele>
        <time>2010-01-01T12:21:42Z</time>
      </trkpt>
      <trkpt lat="31.35152000" lon="35.10905720">
        <ele>842.00000</ele>
        <time>2010-01-01T12:22:40Z</time>
      </trkpt>
      <trkpt lat="31.35057960" lon="35.11005780">
        <ele>836.00000</ele>
        <time>2010-01-01T12:23:31Z</time>
      </trkpt>
      <trkpt lat="31.34959740" lon="35.11127720">
        <ele>818.00000</ele>
        <time>2010-01-01T12:24:29Z</time>
      </trkpt>
      <trkpt lat="31.34953570" lon="35.11276410">
        <ele>798.00000</ele>
        <time>2010-01-01T12:25:20Z</time>
      </trkpt>
      <trkpt lat="31.35010200" lon="35.11461540">
        <ele>763.00000</ele>
        <time>2010-01-01T12:26:27Z</time>
      </trkpt>
      <trkpt lat="31.35056200" lon="35.11461520">
        <ele>750.00000</ele>
        <time>2010-01-01T12:26:45Z</time>
      </trkpt>
      <trkpt lat="31.35129370" lon="35.11405380">
        <ele>745.00000</ele>
        <time>2010-01-01T12:27:20Z</time>
      </trkpt>
      <trkpt lat="31.35177420" lon="35.11302950">
        <ele>762.00000</ele>
        <time>2010-01-01T12:28:00Z</time>
      </trkpt>
      <trkpt lat="31.35231780" lon="35.11273650">
        <ele>770.00000</ele>
        <time>2010-01-01T12:28:24Z</time>
      </trkpt>
      <trkpt lat="31.35313320" lon="35.11273560">
        <ele>782.00000</ele>
        <time>2010-01-01T12:28:57Z</time>
      </trkpt>
      <trkpt lat="31.35369820" lon="35.11263770">
        <ele>798.00000</ele>
        <time>2010-01-01T12:29:20Z</time>
      </trkpt>
      <trkpt lat="31.35388640" lon="35.11305160">
        <ele>803.00000</ele>
        <time>2010-01-01T12:29:36Z</time>
      </trkpt>
      <trkpt lat="31.35325980" lon="35.11417360">
        <ele>789.00000</ele>
        <time>2010-01-01T12:30:21Z</time>
      </trkpt>
      <trkpt lat="31.35265440" lon="35.11585570">
        <ele>757.00000</ele>
        <time>2010-01-01T12:31:24Z</time>
      </trkpt>
      <trkpt lat="31.35244620" lon="35.11646540">
        <ele>743.00000</ele>
        <time>2010-01-01T12:31:46Z</time>
      </trkpt>
      <trkpt lat="31.35127600" lon="35.11783120">
        <ele>708.00000</ele>
        <time>2010-01-01T12:32:52Z</time>
      </trkpt>
      <trkpt lat="31.35075290" lon="35.11814850">
        <ele>700.00000</ele>
        <time>2010-01-01T12:33:16Z</time>
      </trkpt>
      <trkpt lat="31.34989550" lon="35.11822280">
        <ele>692.00000</ele>
        <time>2010-01-01T12:33:50Z</time>
      </trkpt>
      <trkpt lat="31.34614890" lon="35.12076370">
        <ele>658.00000</ele>
        <time>2010-01-01T12:36:44Z</time>
      </trkpt>
      <trkpt lat="31.34117320" lon="35.12109860">
        <ele>633.00000</ele>
        <time>2010-01-01T12:40:03Z</time>
      </trkpt>
      <trkpt lat="31.33866500" lon="35.12190210">
        <ele>624.00000</ele>
        <time>2010-01-01T12:41:47Z</time>
      </trkpt>
      <trkpt lat="31.33639890" lon="35.12115040">
        <ele>614.00000</ele>
        <time>2010-01-01T12:43:22Z</time>
      </trkpt>
      <trkpt lat="31.33024740" lon="35.11828090">
        <ele>607.00000</ele>
        <time>2010-01-01T12:47:47Z</time>
      </trkpt>
      <trkpt lat="31.32510750" lon="35.11545820">
        <ele>597.00000</ele>
        <time>2010-01-01T12:51:34Z</time>
      </trkpt>
      <trkpt lat="31.32223450" lon="35.11517860">
        <ele>586.00000</ele>
        <time>2010-01-01T12:53:29Z</time>
      </trkpt>
      <trkpt lat="31.31924130" lon="35.11598280">
        <ele>572.00000</ele>
        <time>2010-01-01T12:55:32Z</time>
      </trkpt>
      <trkpt lat="31.31750260" lon="35.11730380">
        <ele>563.00000</ele>
        <time>2010-01-01T12:56:55Z</time>
      </trkpt>
      <trkpt lat="31.31281260" lon="35.12173810">
        <ele>595.00000</ele>
        <time>2010-01-01T13:00:57Z</time>
      </trkpt>
      <trkpt lat="31.30974010" lon="35.12503990">
        <ele>577.00000</ele>
        <time>2010-01-01T13:03:44Z</time>
      </trkpt>
      <trkpt lat="31.30650590" lon="35.12843530">
        <ele>555.00000</ele>
        <time>2010-01-01T13:06:38Z</time>
      </trkpt>
      <trkpt lat="31.30335160" lon="35.13079390">
        <ele>540.00000</ele>
        <time>2010-01-01T13:09:07Z</time>
      </trkpt>
      <trkpt lat="31.30011580" lon="35.13202170">
        <ele>528.00000</ele>
        <time>2010-01-01T13:11:24Z</time>
      </trkpt>
      <trkpt lat="31.29619160" lon="35.13183670">
        <ele>517.00000</ele>
        <time>2010-01-01T13:14:01Z</time>
      </trkpt>
      <trkpt lat="31.29364220" lon="35.13146180">
        <ele>514.00000</ele>
        <time>2010-01-01T13:15:44Z</time>
      </trkpt>
      <trkpt lat="31.28563070" lon="35.13014950">
        <ele>514.00000</ele>
        <time>2010-01-01T13:21:07Z</time>
      </trkpt>
      <trkpt lat="31.27010480" lon="35.12807970">
        <ele>510.00000</ele>
        <time>2010-01-01T13:31:33Z</time>
      </trkpt>
      <trkpt lat="31.26382770" lon="35.12728630">
        <ele>505.00000</ele>
        <time>2010-01-01T13:35:46Z</time>
      </trkpt>
      <trkpt lat="31.25401910" lon="35.12432680">
        <ele>492.00000</ele>
        <time>2010-01-01T13:42:31Z</time>
      </trkpt>
      <trkpt lat="31.25500860" lon="35.13859530">
        <ele>484.00000</ele>
        <time>2010-01-01T13:50:41Z</time>
      </trkpt>
      <trkpt lat="31.25530800" lon="35.14841270">
        <ele>493.00000</ele>
        <time>2010-01-01T13:56:17Z</time>
      </trkpt>
      <trkpt lat="31.25462810" lon="35.16325350">
        <ele>509.00000</ele>
        <time>2010-01-01T14:04:46Z</time>
      </trkpt>
      <trkpt lat="31.25482690" lon="35.17101600">
        <ele>523.00000</ele>
        <time>2010-01-01T14:09:12Z</time>
      </trkpt>
      <trkpt lat="31.25443710" lon="35.17855000">
        <ele>536.00000</ele>
        <time>2010-01-01T14:13:30Z</time>
      </trkpt>
      <trkpt lat="31.25347190" lon="35.18286380">
        <ele>543.00000</ele>
        <time>2010-01-01T14:16:02Z</time>
      </trkpt>
      <trkpt lat="31.25196150" lon="35.18587310">
        <ele>544.00000</ele>
        <time>2010-01-01T14:18:02Z</time>
      </trkpt>
      <trkpt lat="31.24913890" lon="35.19351220">
        <ele>550.00000</ele>
        <time>2010-01-01T14:22:47Z</time>
      </trkpt>
      <trkpt lat="31.24890110" lon="35.19633570">
        <ele>559.00000</ele>
        <time>2010-01-01T14:24:24Z</time>
      </trkpt>
      <trkpt lat="31.24929870" lon="35.19939110">
        <ele>569.00000</ele>
        <time>2010-01-01T14:26:10Z</time>
      </trkpt>
      <trkpt lat="31.25053200" lon="35.20226120">
        <ele>578.00000</ele>
        <time>2010-01-01T14:27:59Z</time>
      </trkpt>
      <trkpt lat="31.25232210" lon="35.20425140">
        <ele>582.00000</ele>
        <time>2010-01-01T14:29:38Z</time>
      </trkpt>
      <trkpt lat="31.25375370" lon="35.20651970">
        <ele>597.00000</ele>
        <time>2010-01-01T14:31:15Z</time>
      </trkpt>
      <trkpt lat="31.25482740" lon="35.20920460">
        <ele>602.00000</ele>
        <time>2010-01-01T14:32:56Z</time>
      </trkpt>
      <trkpt lat="31.25478770" lon="35.21013080">
        <ele>600.00000</ele>
        <time>2010-01-01T14:33:28Z</time>
      </trkpt>
      <trkpt lat="31.25777080" lon="35.20915850">
        <ele>605.00000</ele>
        <time>2010-01-01T14:35:32Z</time>
      </trkpt>
      <trkpt lat="31.26091230" lon="35.21485290">
        <ele>614.00000</ele>
        <time>2010-01-01T14:39:24Z</time>
      </trkpt>
    </trkseg>
  </trk>
</gpx>

